<?xml version="1.0" encoding="UTF-8" standalone="no" ?>
<gpx xmlns="http://www.topografix.com/GPX/1/1" xmlns:xsi="http://www.w3.org/2001/XMLSchema-instance" xsi:schemaLocation="http://www.topografix.com/GPX/1/1 http://www.topografix.com/GPX/1/1/gpx.xsd" version="1.1" creator="VisuGPX - https://www.visugpx.com">
  <metadata>
    <name>Circuit du 25 Mai 2012</name>
    <desc><![CDATA[Circuit avec monté au mont Vinaigre, le point culminant du massif de l\\\'Estérel. Magnifique vu à 360°. Il faut la mériter.]]></desc>
  </metadata>
  <trk>
    <name><![CDATA[ACTIVE LOG: 25 MAI 2012 09:31]]></name>
    <trkseg>
      <trkpt lat="43.49909" lon="6.75795">
        <ele>34.26</ele>
        <time>2012-05-25T07:44:21Z</time>
      </trkpt>
      <trkpt lat="43.4991" lon="6.75793">
        <ele>34.74</ele>
        <time>2012-05-25T07:44:49Z</time>
      </trkpt>
      <trkpt lat="43.49934" lon="6.75798">
        <ele>32.82</ele>
        <time>2012-05-25T07:45:01Z</time>
      </trkpt>
      <trkpt lat="43.49951" lon="6.7579">
        <ele>31.38</ele>
        <time>2012-05-25T07:45:06Z</time>
      </trkpt>
      <trkpt lat="43.49971" lon="6.75785">
        <ele>29.94</ele>
        <time>2012-05-25T07:45:11Z</time>
      </trkpt>
      <trkpt lat="43.50014" lon="6.75805">
        <ele>30.42</ele>
        <time>2012-05-25T07:45:27Z</time>
      </trkpt>
      <trkpt lat="43.50064" lon="6.75823">
        <ele>30.42</ele>
        <time>2012-05-25T07:45:44Z</time>
      </trkpt>
      <trkpt lat="43.50079" lon="6.75839">
        <ele>30.42</ele>
        <time>2012-05-25T07:45:54Z</time>
      </trkpt>
      <trkpt lat="43.50078" lon="6.75832">
        <ele>30.42</ele>
        <time>2012-05-25T07:46:07Z</time>
      </trkpt>
      <trkpt lat="43.50082" lon="6.75834">
        <ele>29.94</ele>
        <time>2012-05-25T07:46:25Z</time>
      </trkpt>
      <trkpt lat="43.50085" lon="6.75832">
        <ele>29.94</ele>
        <time>2012-05-25T07:46:39Z</time>
      </trkpt>
      <trkpt lat="43.50087" lon="6.75829">
        <ele>29.94</ele>
        <time>2012-05-25T07:46:51Z</time>
      </trkpt>
      <trkpt lat="43.501" lon="6.7584">
        <ele>30.42</ele>
        <time>2012-05-25T07:47:08Z</time>
      </trkpt>
      <trkpt lat="43.50103" lon="6.75843">
        <ele>30.42</ele>
        <time>2012-05-25T07:47:11Z</time>
      </trkpt>
      <trkpt lat="43.50119" lon="6.75848">
        <ele>33.3</ele>
        <time>2012-05-25T07:47:30Z</time>
      </trkpt>
      <trkpt lat="43.50129" lon="6.75841">
        <ele>36.67</ele>
        <time>2012-05-25T07:47:45Z</time>
      </trkpt>
      <trkpt lat="43.50137" lon="6.75838">
        <ele>38.59</ele>
        <time>2012-05-25T07:48:01Z</time>
      </trkpt>
      <trkpt lat="43.50162" lon="6.75843">
        <ele>38.59</ele>
        <time>2012-05-25T07:48:14Z</time>
      </trkpt>
      <trkpt lat="43.5018" lon="6.75836">
        <ele>39.07</ele>
        <time>2012-05-25T07:48:24Z</time>
      </trkpt>
      <trkpt lat="43.5021" lon="6.75819">
        <ele>39.07</ele>
        <time>2012-05-25T07:48:41Z</time>
      </trkpt>
      <trkpt lat="43.50265" lon="6.75794">
        <ele>39.07</ele>
        <time>2012-05-25T07:49:01Z</time>
      </trkpt>
      <trkpt lat="43.50303" lon="6.75764">
        <ele>39.07</ele>
        <time>2012-05-25T07:49:14Z</time>
      </trkpt>
      <trkpt lat="43.50353" lon="6.7577">
        <ele>38.59</ele>
        <time>2012-05-25T07:49:29Z</time>
      </trkpt>
      <trkpt lat="43.50375" lon="6.75779">
        <ele>37.63</ele>
        <time>2012-05-25T07:49:39Z</time>
      </trkpt>
      <trkpt lat="43.50374" lon="6.75777">
        <ele>37.63</ele>
        <time>2012-05-25T07:50:09Z</time>
      </trkpt>
      <trkpt lat="43.50373" lon="6.75778">
        <ele>37.15</ele>
        <time>2012-05-25T07:50:32Z</time>
      </trkpt>
      <trkpt lat="43.50366" lon="6.75786">
        <ele>36.67</ele>
        <time>2012-05-25T07:50:57Z</time>
      </trkpt>
      <trkpt lat="43.50381" lon="6.75793">
        <ele>36.67</ele>
        <time>2012-05-25T07:51:13Z</time>
      </trkpt>
      <trkpt lat="43.5043" lon="6.75829">
        <ele>35.71</ele>
        <time>2012-05-25T07:51:28Z</time>
      </trkpt>
      <trkpt lat="43.50453" lon="6.75846">
        <ele>38.11</ele>
        <time>2012-05-25T07:51:40Z</time>
      </trkpt>
      <trkpt lat="43.50456" lon="6.7586">
        <ele>38.11</ele>
        <time>2012-05-25T07:51:46Z</time>
      </trkpt>
      <trkpt lat="43.50439" lon="6.759">
        <ele>38.11</ele>
        <time>2012-05-25T07:51:56Z</time>
      </trkpt>
      <trkpt lat="43.50438" lon="6.75903">
        <ele>38.59</ele>
        <time>2012-05-25T07:51:59Z</time>
      </trkpt>
      <trkpt lat="43.50434" lon="6.75913">
        <ele>39.07</ele>
        <time>2012-05-25T07:52:15Z</time>
      </trkpt>
      <trkpt lat="43.50438" lon="6.75905">
        <ele>39.07</ele>
        <time>2012-05-25T07:52:25Z</time>
      </trkpt>
      <trkpt lat="43.50439" lon="6.75901">
        <ele>38.59</ele>
        <time>2012-05-25T07:52:41Z</time>
      </trkpt>
      <trkpt lat="43.50439" lon="6.75902">
        <ele>38.59</ele>
        <time>2012-05-25T07:53:18Z</time>
      </trkpt>
      <trkpt lat="43.50427" lon="6.75924">
        <ele>40.03</ele>
        <time>2012-05-25T07:53:33Z</time>
      </trkpt>
      <trkpt lat="43.50433" lon="6.7596">
        <ele>41.95</ele>
        <time>2012-05-25T07:53:49Z</time>
      </trkpt>
      <trkpt lat="43.50458" lon="6.75993">
        <ele>45.32</ele>
        <time>2012-05-25T07:54:09Z</time>
      </trkpt>
      <trkpt lat="43.50487" lon="6.76013">
        <ele>48.2</ele>
        <time>2012-05-25T07:54:28Z</time>
      </trkpt>
      <trkpt lat="43.50513" lon="6.76029">
        <ele>51.09</ele>
        <time>2012-05-25T07:54:46Z</time>
      </trkpt>
      <trkpt lat="43.50524" lon="6.76055">
        <ele>53.97</ele>
        <time>2012-05-25T07:55:01Z</time>
      </trkpt>
      <trkpt lat="43.50536" lon="6.7609">
        <ele>56.86</ele>
        <time>2012-05-25T07:55:20Z</time>
      </trkpt>
      <trkpt lat="43.50547" lon="6.7615">
        <ele>57.34</ele>
        <time>2012-05-25T07:55:39Z</time>
      </trkpt>
      <trkpt lat="43.5057" lon="6.76216">
        <ele>59.26</ele>
        <time>2012-05-25T07:55:57Z</time>
      </trkpt>
      <trkpt lat="43.50602" lon="6.76274">
        <ele>61.18</ele>
        <time>2012-05-25T07:56:18Z</time>
      </trkpt>
      <trkpt lat="43.50604" lon="6.76314">
        <ele>64.55</ele>
        <time>2012-05-25T07:56:35Z</time>
      </trkpt>
      <trkpt lat="43.50612" lon="6.76346">
        <ele>67.91</ele>
        <time>2012-05-25T07:56:50Z</time>
      </trkpt>
      <trkpt lat="43.50639" lon="6.76363">
        <ele>69.83</ele>
        <time>2012-05-25T07:57:08Z</time>
      </trkpt>
      <trkpt lat="43.50685" lon="6.76383">
        <ele>72.24</ele>
        <time>2012-05-25T07:57:31Z</time>
      </trkpt>
      <trkpt lat="43.50741" lon="6.76421">
        <ele>74.16</ele>
        <time>2012-05-25T07:57:53Z</time>
      </trkpt>
      <trkpt lat="43.50758" lon="6.76441">
        <ele>76.08</ele>
        <time>2012-05-25T07:58:04Z</time>
      </trkpt>
      <trkpt lat="43.50773" lon="6.76461">
        <ele>75.12</ele>
        <time>2012-05-25T07:58:09Z</time>
      </trkpt>
      <trkpt lat="43.50787" lon="6.76484">
        <ele>75.12</ele>
        <time>2012-05-25T07:58:14Z</time>
      </trkpt>
      <trkpt lat="43.50787" lon="6.76508">
        <ele>75.12</ele>
        <time>2012-05-25T07:58:23Z</time>
      </trkpt>
      <trkpt lat="43.50806" lon="6.76567">
        <ele>71.76</ele>
        <time>2012-05-25T07:58:31Z</time>
      </trkpt>
      <trkpt lat="43.50809" lon="6.76578">
        <ele>71.76</ele>
        <time>2012-05-25T07:58:32Z</time>
      </trkpt>
      <trkpt lat="43.50812" lon="6.76612">
        <ele>69.35</ele>
        <time>2012-05-25T07:58:35Z</time>
      </trkpt>
      <trkpt lat="43.50812" lon="6.76634">
        <ele>68.39</ele>
        <time>2012-05-25T07:58:37Z</time>
      </trkpt>
      <trkpt lat="43.50789" lon="6.76686">
        <ele>68.39</ele>
        <time>2012-05-25T07:58:45Z</time>
      </trkpt>
      <trkpt lat="43.50767" lon="6.76706">
        <ele>71.27</ele>
        <time>2012-05-25T07:58:59Z</time>
      </trkpt>
      <trkpt lat="43.50776" lon="6.76743">
        <ele>73.2</ele>
        <time>2012-05-25T07:59:14Z</time>
      </trkpt>
      <trkpt lat="43.5077" lon="6.76789">
        <ele>75.12</ele>
        <time>2012-05-25T07:59:31Z</time>
      </trkpt>
      <trkpt lat="43.50752" lon="6.76833">
        <ele>78</ele>
        <time>2012-05-25T07:59:50Z</time>
      </trkpt>
      <trkpt lat="43.50729" lon="6.76882">
        <ele>79.45</ele>
        <time>2012-05-25T08:00:10Z</time>
      </trkpt>
      <trkpt lat="43.50731" lon="6.76923">
        <ele>79.45</ele>
        <time>2012-05-25T08:00:26Z</time>
      </trkpt>
      <trkpt lat="43.50729" lon="6.76931">
        <ele>78.97</ele>
        <time>2012-05-25T08:00:43Z</time>
      </trkpt>
      <trkpt lat="43.50727" lon="6.76939">
        <ele>78.97</ele>
        <time>2012-05-25T08:01:05Z</time>
      </trkpt>
      <trkpt lat="43.5071" lon="6.76935">
        <ele>78.48</ele>
        <time>2012-05-25T08:01:10Z</time>
      </trkpt>
      <trkpt lat="43.50694" lon="6.769">
        <ele>78</ele>
        <time>2012-05-25T08:01:22Z</time>
      </trkpt>
      <trkpt lat="43.50678" lon="6.76945">
        <ele>79.45</ele>
        <time>2012-05-25T08:01:35Z</time>
      </trkpt>
      <trkpt lat="43.50664" lon="6.76987">
        <ele>79.93</ele>
        <time>2012-05-25T08:01:45Z</time>
      </trkpt>
      <trkpt lat="43.50645" lon="6.76978">
        <ele>79.93</ele>
        <time>2012-05-25T08:01:52Z</time>
      </trkpt>
      <trkpt lat="43.50621" lon="6.7694">
        <ele>79.93</ele>
        <time>2012-05-25T08:02:03Z</time>
      </trkpt>
      <trkpt lat="43.50604" lon="6.76939">
        <ele>79.45</ele>
        <time>2012-05-25T08:02:07Z</time>
      </trkpt>
      <trkpt lat="43.50557" lon="6.7695">
        <ele>79.45</ele>
        <time>2012-05-25T08:02:20Z</time>
      </trkpt>
      <trkpt lat="43.50551" lon="6.76936">
        <ele>78.48</ele>
        <time>2012-05-25T08:02:24Z</time>
      </trkpt>
      <trkpt lat="43.50551" lon="6.76914">
        <ele>76.56</ele>
        <time>2012-05-25T08:02:27Z</time>
      </trkpt>
      <trkpt lat="43.50545" lon="6.76873">
        <ele>72.24</ele>
        <time>2012-05-25T08:02:31Z</time>
      </trkpt>
      <trkpt lat="43.50538" lon="6.7685">
        <ele>71.27</ele>
        <time>2012-05-25T08:02:33Z</time>
      </trkpt>
      <trkpt lat="43.50524" lon="6.76804">
        <ele>67.91</ele>
        <time>2012-05-25T08:02:37Z</time>
      </trkpt>
      <trkpt lat="43.50517" lon="6.76769">
        <ele>65.51</ele>
        <time>2012-05-25T08:02:40Z</time>
      </trkpt>
      <trkpt lat="43.50518" lon="6.76721">
        <ele>63.58</ele>
        <time>2012-05-25T08:02:45Z</time>
      </trkpt>
      <trkpt lat="43.50514" lon="6.76687">
        <ele>61.66</ele>
        <time>2012-05-25T08:02:49Z</time>
      </trkpt>
      <trkpt lat="43.50483" lon="6.76654">
        <ele>58.78</ele>
        <time>2012-05-25T08:02:56Z</time>
      </trkpt>
      <trkpt lat="43.50473" lon="6.7669">
        <ele>57.34</ele>
        <time>2012-05-25T08:03:01Z</time>
      </trkpt>
      <trkpt lat="43.50481" lon="6.76718">
        <ele>56.86</ele>
        <time>2012-05-25T08:03:07Z</time>
      </trkpt>
      <trkpt lat="43.50473" lon="6.76726">
        <ele>56.86</ele>
        <time>2012-05-25T08:03:11Z</time>
      </trkpt>
      <trkpt lat="43.50451" lon="6.76739">
        <ele>59.74</ele>
        <time>2012-05-25T08:03:28Z</time>
      </trkpt>
      <trkpt lat="43.50454" lon="6.76772">
        <ele>63.1</ele>
        <time>2012-05-25T08:03:43Z</time>
      </trkpt>
      <trkpt lat="43.50449" lon="6.76806">
        <ele>65.99</ele>
        <time>2012-05-25T08:03:58Z</time>
      </trkpt>
      <trkpt lat="43.50438" lon="6.76848">
        <ele>68.87</ele>
        <time>2012-05-25T08:04:17Z</time>
      </trkpt>
      <trkpt lat="43.50427" lon="6.76897">
        <ele>71.76</ele>
        <time>2012-05-25T08:04:39Z</time>
      </trkpt>
      <trkpt lat="43.50409" lon="6.76929">
        <ele>73.68</ele>
        <time>2012-05-25T08:04:55Z</time>
      </trkpt>
      <trkpt lat="43.50372" lon="6.76949">
        <ele>72.72</ele>
        <time>2012-05-25T08:05:08Z</time>
      </trkpt>
      <trkpt lat="43.50343" lon="6.76943">
        <ele>74.64</ele>
        <time>2012-05-25T08:05:24Z</time>
      </trkpt>
      <trkpt lat="43.50321" lon="6.76967">
        <ele>78</ele>
        <time>2012-05-25T08:05:40Z</time>
      </trkpt>
      <trkpt lat="43.50298" lon="6.76983">
        <ele>80.89</ele>
        <time>2012-05-25T08:05:55Z</time>
      </trkpt>
      <trkpt lat="43.50278" lon="6.76991">
        <ele>84.25</ele>
        <time>2012-05-25T08:06:08Z</time>
      </trkpt>
      <trkpt lat="43.50246" lon="6.76991">
        <ele>86.66</ele>
        <time>2012-05-25T08:06:28Z</time>
      </trkpt>
      <trkpt lat="43.50225" lon="6.76958">
        <ele>88.58</ele>
        <time>2012-05-25T08:06:45Z</time>
      </trkpt>
      <trkpt lat="43.50205" lon="6.7693">
        <ele>89.54</ele>
        <time>2012-05-25T08:07:03Z</time>
      </trkpt>
      <trkpt lat="43.50205" lon="6.76931">
        <ele>89.06</ele>
        <time>2012-05-25T08:07:16Z</time>
      </trkpt>
      <trkpt lat="43.50205" lon="6.76931">
        <ele>89.06</ele>
        <time>2012-05-25T08:07:39Z</time>
      </trkpt>
      <trkpt lat="43.50201" lon="6.76929">
        <ele>88.58</ele>
        <time>2012-05-25T08:07:43Z</time>
      </trkpt>
      <trkpt lat="43.50168" lon="6.76916">
        <ele>85.69</ele>
        <time>2012-05-25T08:07:52Z</time>
      </trkpt>
      <trkpt lat="43.50147" lon="6.76906">
        <ele>83.29</ele>
        <time>2012-05-25T08:07:58Z</time>
      </trkpt>
      <trkpt lat="43.50129" lon="6.76855">
        <ele>79.93</ele>
        <time>2012-05-25T08:08:08Z</time>
      </trkpt>
      <trkpt lat="43.50109" lon="6.76837">
        <ele>78.97</ele>
        <time>2012-05-25T08:08:13Z</time>
      </trkpt>
      <trkpt lat="43.50059" lon="6.76819">
        <ele>75.6</ele>
        <time>2012-05-25T08:08:21Z</time>
      </trkpt>
      <trkpt lat="43.50011" lon="6.76796">
        <ele>71.76</ele>
        <time>2012-05-25T08:08:28Z</time>
      </trkpt>
      <trkpt lat="43.49971" lon="6.76775">
        <ele>69.35</ele>
        <time>2012-05-25T08:08:33Z</time>
      </trkpt>
      <trkpt lat="43.49955" lon="6.76768">
        <ele>67.91</ele>
        <time>2012-05-25T08:08:35Z</time>
      </trkpt>
      <trkpt lat="43.49928" lon="6.76747">
        <ele>65.99</ele>
        <time>2012-05-25T08:08:39Z</time>
      </trkpt>
      <trkpt lat="43.4992" lon="6.76695">
        <ele>64.07</ele>
        <time>2012-05-25T08:08:46Z</time>
      </trkpt>
      <trkpt lat="43.49914" lon="6.76693">
        <ele>63.58</ele>
        <time>2012-05-25T08:08:55Z</time>
      </trkpt>
      <trkpt lat="43.49915" lon="6.76695">
        <ele>63.1</ele>
        <time>2012-05-25T08:09:22Z</time>
      </trkpt>
      <trkpt lat="43.49915" lon="6.76694">
        <ele>64.07</ele>
        <time>2012-05-25T08:09:46Z</time>
      </trkpt>
      <trkpt lat="43.49915" lon="6.76695">
        <ele>63.58</ele>
        <time>2012-05-25T08:10:01Z</time>
      </trkpt>
      <trkpt lat="43.49915" lon="6.76694">
        <ele>64.07</ele>
        <time>2012-05-25T08:10:18Z</time>
      </trkpt>
      <trkpt lat="43.49911" lon="6.767">
        <ele>64.07</ele>
        <time>2012-05-25T08:10:23Z</time>
      </trkpt>
      <trkpt lat="43.49907" lon="6.76745">
        <ele>65.03</ele>
        <time>2012-05-25T08:10:41Z</time>
      </trkpt>
      <trkpt lat="43.49883" lon="6.76779">
        <ele>66.47</ele>
        <time>2012-05-25T08:11:01Z</time>
      </trkpt>
      <trkpt lat="43.49858" lon="6.76808">
        <ele>67.91</ele>
        <time>2012-05-25T08:11:20Z</time>
      </trkpt>
      <trkpt lat="43.49847" lon="6.76839">
        <ele>68.87</ele>
        <time>2012-05-25T08:11:35Z</time>
      </trkpt>
      <trkpt lat="43.49842" lon="6.76888">
        <ele>70.31</ele>
        <time>2012-05-25T08:11:57Z</time>
      </trkpt>
      <trkpt lat="43.49836" lon="6.76936">
        <ele>71.27</ele>
        <time>2012-05-25T08:12:18Z</time>
      </trkpt>
      <trkpt lat="43.49819" lon="6.7697">
        <ele>72.24</ele>
        <time>2012-05-25T08:12:36Z</time>
      </trkpt>
      <trkpt lat="43.498" lon="6.76992">
        <ele>73.68</ele>
        <time>2012-05-25T08:12:51Z</time>
      </trkpt>
      <trkpt lat="43.49797" lon="6.77">
        <ele>73.68</ele>
        <time>2012-05-25T08:13:04Z</time>
      </trkpt>
      <trkpt lat="43.49795" lon="6.76999">
        <ele>73.68</ele>
        <time>2012-05-25T08:13:19Z</time>
      </trkpt>
      <trkpt lat="43.49796" lon="6.76999">
        <ele>73.68</ele>
        <time>2012-05-25T08:14:20Z</time>
      </trkpt>
      <trkpt lat="43.4979" lon="6.76998">
        <ele>74.16</ele>
        <time>2012-05-25T08:14:26Z</time>
      </trkpt>
      <trkpt lat="43.4977" lon="6.7702">
        <ele>75.12</ele>
        <time>2012-05-25T08:14:42Z</time>
      </trkpt>
      <trkpt lat="43.49752" lon="6.77054">
        <ele>77.04</ele>
        <time>2012-05-25T08:15:00Z</time>
      </trkpt>
      <trkpt lat="43.4973" lon="6.77094">
        <ele>79.45</ele>
        <time>2012-05-25T08:15:19Z</time>
      </trkpt>
      <trkpt lat="43.49708" lon="6.77082">
        <ele>80.41</ele>
        <time>2012-05-25T08:15:33Z</time>
      </trkpt>
      <trkpt lat="43.49715" lon="6.7703">
        <ele>81.37</ele>
        <time>2012-05-25T08:15:50Z</time>
      </trkpt>
      <trkpt lat="43.49703" lon="6.76966">
        <ele>83.77</ele>
        <time>2012-05-25T08:16:10Z</time>
      </trkpt>
      <trkpt lat="43.49693" lon="6.76904">
        <ele>87.14</ele>
        <time>2012-05-25T08:16:34Z</time>
      </trkpt>
      <trkpt lat="43.49711" lon="6.76873">
        <ele>89.06</ele>
        <time>2012-05-25T08:16:50Z</time>
      </trkpt>
      <trkpt lat="43.49739" lon="6.76845">
        <ele>91.46</ele>
        <time>2012-05-25T08:17:10Z</time>
      </trkpt>
      <trkpt lat="43.49747" lon="6.76806">
        <ele>93.39</ele>
        <time>2012-05-25T08:17:27Z</time>
      </trkpt>
      <trkpt lat="43.49733" lon="6.76749">
        <ele>96.27</ele>
        <time>2012-05-25T08:17:50Z</time>
      </trkpt>
      <trkpt lat="43.49717" lon="6.76698">
        <ele>98.67</ele>
        <time>2012-05-25T08:18:11Z</time>
      </trkpt>
      <trkpt lat="43.497" lon="6.76646">
        <ele>101.08</ele>
        <time>2012-05-25T08:18:33Z</time>
      </trkpt>
      <trkpt lat="43.49691" lon="6.76638">
        <ele>102.04</ele>
        <time>2012-05-25T08:18:39Z</time>
      </trkpt>
      <trkpt lat="43.49687" lon="6.76649">
        <ele>102.52</ele>
        <time>2012-05-25T08:18:45Z</time>
      </trkpt>
      <trkpt lat="43.4969" lon="6.76704">
        <ele>104.92</ele>
        <time>2012-05-25T08:19:06Z</time>
      </trkpt>
      <trkpt lat="43.4968" lon="6.76781">
        <ele>107.81</ele>
        <time>2012-05-25T08:19:36Z</time>
      </trkpt>
      <trkpt lat="43.49648" lon="6.76809">
        <ele>110.21</ele>
        <time>2012-05-25T08:19:57Z</time>
      </trkpt>
      <trkpt lat="43.49616" lon="6.76827">
        <ele>112.13</ele>
        <time>2012-05-25T08:20:16Z</time>
      </trkpt>
      <trkpt lat="43.49582" lon="6.76866">
        <ele>114.53</ele>
        <time>2012-05-25T08:20:40Z</time>
      </trkpt>
      <trkpt lat="43.49559" lon="6.76904">
        <ele>117.42</ele>
        <time>2012-05-25T08:21:00Z</time>
      </trkpt>
      <trkpt lat="43.49532" lon="6.76914">
        <ele>118.38</ele>
        <time>2012-05-25T08:21:15Z</time>
      </trkpt>
      <trkpt lat="43.49488" lon="6.76916">
        <ele>121.26</ele>
        <time>2012-05-25T08:21:39Z</time>
      </trkpt>
      <trkpt lat="43.49457" lon="6.76904">
        <ele>124.15</ele>
        <time>2012-05-25T08:21:59Z</time>
      </trkpt>
      <trkpt lat="43.49433" lon="6.76897">
        <ele>127.03</ele>
        <time>2012-05-25T08:22:16Z</time>
      </trkpt>
      <trkpt lat="43.49406" lon="6.76884">
        <ele>129.92</ele>
        <time>2012-05-25T08:22:35Z</time>
      </trkpt>
      <trkpt lat="43.49379" lon="6.7686">
        <ele>131.84</ele>
        <time>2012-05-25T08:22:55Z</time>
      </trkpt>
      <trkpt lat="43.49347" lon="6.76825">
        <ele>135.2</ele>
        <time>2012-05-25T08:23:19Z</time>
      </trkpt>
      <trkpt lat="43.49326" lon="6.76802">
        <ele>138.57</ele>
        <time>2012-05-25T08:23:36Z</time>
      </trkpt>
      <trkpt lat="43.49309" lon="6.76811">
        <ele>140.01</ele>
        <time>2012-05-25T08:23:49Z</time>
      </trkpt>
      <trkpt lat="43.49302" lon="6.7685">
        <ele>141.45</ele>
        <time>2012-05-25T08:24:07Z</time>
      </trkpt>
      <trkpt lat="43.49299" lon="6.76898">
        <ele>143.85</ele>
        <time>2012-05-25T08:24:28Z</time>
      </trkpt>
      <trkpt lat="43.49278" lon="6.76934">
        <ele>145.78</ele>
        <time>2012-05-25T08:24:48Z</time>
      </trkpt>
      <trkpt lat="43.49253" lon="6.76972">
        <ele>148.66</ele>
        <time>2012-05-25T08:25:11Z</time>
      </trkpt>
      <trkpt lat="43.49248" lon="6.77008">
        <ele>150.58</ele>
        <time>2012-05-25T08:25:29Z</time>
      </trkpt>
      <trkpt lat="43.49246" lon="6.77051">
        <ele>152.03</ele>
        <time>2012-05-25T08:25:49Z</time>
      </trkpt>
      <trkpt lat="43.4925" lon="6.77094">
        <ele>153.95</ele>
        <time>2012-05-25T08:26:08Z</time>
      </trkpt>
      <trkpt lat="43.49242" lon="6.77131">
        <ele>156.83</ele>
        <time>2012-05-25T08:26:26Z</time>
      </trkpt>
      <trkpt lat="43.49227" lon="6.77166">
        <ele>158.75</ele>
        <time>2012-05-25T08:26:44Z</time>
      </trkpt>
      <trkpt lat="43.49243" lon="6.77204">
        <ele>159.72</ele>
        <time>2012-05-25T08:27:03Z</time>
      </trkpt>
      <trkpt lat="43.49278" lon="6.772">
        <ele>159.72</ele>
        <time>2012-05-25T08:27:15Z</time>
      </trkpt>
      <trkpt lat="43.49331" lon="6.77252">
        <ele>159.72</ele>
        <time>2012-05-25T08:27:32Z</time>
      </trkpt>
      <trkpt lat="43.49343" lon="6.77291">
        <ele>160.2</ele>
        <time>2012-05-25T08:27:41Z</time>
      </trkpt>
      <trkpt lat="43.49346" lon="6.7734">
        <ele>162.12</ele>
        <time>2012-05-25T08:27:59Z</time>
      </trkpt>
      <trkpt lat="43.49336" lon="6.77384">
        <ele>165.48</ele>
        <time>2012-05-25T08:28:19Z</time>
      </trkpt>
      <trkpt lat="43.49329" lon="6.7742">
        <ele>168.37</ele>
        <time>2012-05-25T08:28:37Z</time>
      </trkpt>
      <trkpt lat="43.49348" lon="6.77465">
        <ele>170.77</ele>
        <time>2012-05-25T08:29:00Z</time>
      </trkpt>
      <trkpt lat="43.49343" lon="6.77517">
        <ele>173.66</ele>
        <time>2012-05-25T08:29:24Z</time>
      </trkpt>
      <trkpt lat="43.49337" lon="6.77559">
        <ele>176.54</ele>
        <time>2012-05-25T08:29:43Z</time>
      </trkpt>
      <trkpt lat="43.49334" lon="6.77613">
        <ele>178.94</ele>
        <time>2012-05-25T08:30:07Z</time>
      </trkpt>
      <trkpt lat="43.49328" lon="6.77664">
        <ele>181.83</ele>
        <time>2012-05-25T08:30:31Z</time>
      </trkpt>
      <trkpt lat="43.49307" lon="6.77687">
        <ele>184.23</ele>
        <time>2012-05-25T08:30:48Z</time>
      </trkpt>
      <trkpt lat="43.49305" lon="6.77718">
        <ele>186.15</ele>
        <time>2012-05-25T08:31:05Z</time>
      </trkpt>
      <trkpt lat="43.49306" lon="6.77718">
        <ele>186.63</ele>
        <time>2012-05-25T08:31:27Z</time>
      </trkpt>
      <trkpt lat="43.49306" lon="6.77718">
        <ele>186.63</ele>
        <time>2012-05-25T08:32:08Z</time>
      </trkpt>
      <trkpt lat="43.49317" lon="6.77737">
        <ele>185.67</ele>
        <time>2012-05-25T08:32:17Z</time>
      </trkpt>
      <trkpt lat="43.49321" lon="6.77746">
        <ele>185.19</ele>
        <time>2012-05-25T08:32:19Z</time>
      </trkpt>
      <trkpt lat="43.4934" lon="6.77765">
        <ele>183.75</ele>
        <time>2012-05-25T08:32:24Z</time>
      </trkpt>
      <trkpt lat="43.49397" lon="6.7777">
        <ele>180.38</ele>
        <time>2012-05-25T08:32:32Z</time>
      </trkpt>
      <trkpt lat="43.49448" lon="6.77776">
        <ele>177.5</ele>
        <time>2012-05-25T08:32:39Z</time>
      </trkpt>
      <trkpt lat="43.49455" lon="6.77776">
        <ele>177.02</ele>
        <time>2012-05-25T08:32:40Z</time>
      </trkpt>
      <trkpt lat="43.49545" lon="6.77774">
        <ele>173.17</ele>
        <time>2012-05-25T08:32:53Z</time>
      </trkpt>
      <trkpt lat="43.4956" lon="6.77778">
        <ele>172.69</ele>
        <time>2012-05-25T08:32:55Z</time>
      </trkpt>
      <trkpt lat="43.49589" lon="6.77789">
        <ele>171.25</ele>
        <time>2012-05-25T08:32:59Z</time>
      </trkpt>
      <trkpt lat="43.49619" lon="6.77757">
        <ele>170.77</ele>
        <time>2012-05-25T08:33:06Z</time>
      </trkpt>
      <trkpt lat="43.49628" lon="6.7775">
        <ele>170.77</ele>
        <time>2012-05-25T08:33:08Z</time>
      </trkpt>
      <trkpt lat="43.49682" lon="6.77742">
        <ele>169.33</ele>
        <time>2012-05-25T08:33:18Z</time>
      </trkpt>
      <trkpt lat="43.49744" lon="6.77753">
        <ele>169.81</ele>
        <time>2012-05-25T08:33:34Z</time>
      </trkpt>
      <trkpt lat="43.49791" lon="6.77734">
        <ele>168.85</ele>
        <time>2012-05-25T08:33:47Z</time>
      </trkpt>
      <trkpt lat="43.49805" lon="6.77714">
        <ele>168.37</ele>
        <time>2012-05-25T08:33:51Z</time>
      </trkpt>
      <trkpt lat="43.49815" lon="6.77694">
        <ele>167.89</ele>
        <time>2012-05-25T08:33:54Z</time>
      </trkpt>
      <trkpt lat="43.49837" lon="6.77665">
        <ele>166.93</ele>
        <time>2012-05-25T08:33:59Z</time>
      </trkpt>
      <trkpt lat="43.49851" lon="6.77642">
        <ele>166.45</ele>
        <time>2012-05-25T08:34:03Z</time>
      </trkpt>
      <trkpt lat="43.49866" lon="6.77631">
        <ele>166.45</ele>
        <time>2012-05-25T08:34:07Z</time>
      </trkpt>
      <trkpt lat="43.4989" lon="6.77613">
        <ele>165.48</ele>
        <time>2012-05-25T08:34:13Z</time>
      </trkpt>
      <trkpt lat="43.49894" lon="6.776">
        <ele>165.48</ele>
        <time>2012-05-25T08:34:15Z</time>
      </trkpt>
      <trkpt lat="43.49903" lon="6.77587">
        <ele>164.52</ele>
        <time>2012-05-25T08:34:23Z</time>
      </trkpt>
      <trkpt lat="43.49903" lon="6.77589">
        <ele>165</ele>
        <time>2012-05-25T08:35:24Z</time>
      </trkpt>
      <trkpt lat="43.49903" lon="6.77589">
        <ele>165</ele>
        <time>2012-05-25T08:35:32Z</time>
      </trkpt>
      <trkpt lat="43.49918" lon="6.77589">
        <ele>165</ele>
        <time>2012-05-25T08:35:39Z</time>
      </trkpt>
      <trkpt lat="43.49932" lon="6.7758">
        <ele>164.52</ele>
        <time>2012-05-25T08:35:43Z</time>
      </trkpt>
      <trkpt lat="43.49955" lon="6.77575">
        <ele>164.52</ele>
        <time>2012-05-25T08:35:49Z</time>
      </trkpt>
      <trkpt lat="43.50008" lon="6.7758">
        <ele>163.56</ele>
        <time>2012-05-25T08:36:06Z</time>
      </trkpt>
      <trkpt lat="43.50044" lon="6.77571">
        <ele>163.08</ele>
        <time>2012-05-25T08:36:18Z</time>
      </trkpt>
      <trkpt lat="43.50076" lon="6.7755">
        <ele>162.12</ele>
        <time>2012-05-25T08:36:29Z</time>
      </trkpt>
      <trkpt lat="43.50109" lon="6.77517">
        <ele>161.64</ele>
        <time>2012-05-25T08:36:41Z</time>
      </trkpt>
      <trkpt lat="43.50163" lon="6.77499">
        <ele>160.68</ele>
        <time>2012-05-25T08:36:57Z</time>
      </trkpt>
      <trkpt lat="43.50211" lon="6.77508">
        <ele>160.2</ele>
        <time>2012-05-25T08:37:11Z</time>
      </trkpt>
      <trkpt lat="43.50262" lon="6.77521">
        <ele>160.68</ele>
        <time>2012-05-25T08:37:25Z</time>
      </trkpt>
      <trkpt lat="43.50304" lon="6.77544">
        <ele>159.72</ele>
        <time>2012-05-25T08:37:38Z</time>
      </trkpt>
      <trkpt lat="43.50345" lon="6.77549">
        <ele>159.72</ele>
        <time>2012-05-25T08:37:50Z</time>
      </trkpt>
      <trkpt lat="43.5036" lon="6.77551">
        <ele>158.75</ele>
        <time>2012-05-25T08:38:00Z</time>
      </trkpt>
      <trkpt lat="43.50387" lon="6.77562">
        <ele>159.24</ele>
        <time>2012-05-25T08:38:15Z</time>
      </trkpt>
      <trkpt lat="43.50415" lon="6.77579">
        <ele>158.75</ele>
        <time>2012-05-25T08:38:27Z</time>
      </trkpt>
      <trkpt lat="43.5043" lon="6.77587">
        <ele>157.79</ele>
        <time>2012-05-25T08:38:32Z</time>
      </trkpt>
      <trkpt lat="43.50472" lon="6.77612">
        <ele>158.27</ele>
        <time>2012-05-25T08:38:45Z</time>
      </trkpt>
      <trkpt lat="43.50474" lon="6.77615">
        <ele>157.79</ele>
        <time>2012-05-25T08:38:46Z</time>
      </trkpt>
      <trkpt lat="43.50504" lon="6.77589">
        <ele>158.75</ele>
        <time>2012-05-25T08:39:01Z</time>
      </trkpt>
      <trkpt lat="43.50523" lon="6.7755">
        <ele>160.2</ele>
        <time>2012-05-25T08:39:15Z</time>
      </trkpt>
      <trkpt lat="43.5053" lon="6.77547">
        <ele>160.68</ele>
        <time>2012-05-25T08:39:18Z</time>
      </trkpt>
      <trkpt lat="43.50536" lon="6.77532">
        <ele>161.64</ele>
        <time>2012-05-25T08:39:24Z</time>
      </trkpt>
      <trkpt lat="43.5054" lon="6.77488">
        <ele>163.56</ele>
        <time>2012-05-25T08:39:40Z</time>
      </trkpt>
      <trkpt lat="43.5057" lon="6.77457">
        <ele>166.45</ele>
        <time>2012-05-25T08:39:59Z</time>
      </trkpt>
      <trkpt lat="43.50598" lon="6.7745">
        <ele>168.37</ele>
        <time>2012-05-25T08:40:14Z</time>
      </trkpt>
      <trkpt lat="43.50623" lon="6.77407">
        <ele>169.81</ele>
        <time>2012-05-25T08:40:31Z</time>
      </trkpt>
      <trkpt lat="43.50649" lon="6.77418">
        <ele>171.25</ele>
        <time>2012-05-25T08:40:45Z</time>
      </trkpt>
      <trkpt lat="43.50665" lon="6.77453">
        <ele>173.66</ele>
        <time>2012-05-25T08:41:03Z</time>
      </trkpt>
      <trkpt lat="43.50691" lon="6.77466">
        <ele>174.62</ele>
        <time>2012-05-25T08:41:20Z</time>
      </trkpt>
      <trkpt lat="43.50708" lon="6.7748">
        <ele>177.02</ele>
        <time>2012-05-25T08:41:37Z</time>
      </trkpt>
      <trkpt lat="43.50708" lon="6.77475">
        <ele>177.5</ele>
        <time>2012-05-25T08:41:51Z</time>
      </trkpt>
      <trkpt lat="43.50703" lon="6.77469">
        <ele>176.54</ele>
        <time>2012-05-25T08:42:00Z</time>
      </trkpt>
      <trkpt lat="43.50702" lon="6.77465">
        <ele>176.06</ele>
        <time>2012-05-25T08:42:17Z</time>
      </trkpt>
      <trkpt lat="43.50704" lon="6.77468">
        <ele>176.06</ele>
        <time>2012-05-25T08:42:20Z</time>
      </trkpt>
      <trkpt lat="43.50707" lon="6.77472">
        <ele>177.02</ele>
        <time>2012-05-25T08:42:34Z</time>
      </trkpt>
      <trkpt lat="43.50704" lon="6.77475">
        <ele>176.54</ele>
        <time>2012-05-25T08:42:47Z</time>
      </trkpt>
      <trkpt lat="43.5071" lon="6.7748">
        <ele>177.02</ele>
        <time>2012-05-25T08:43:04Z</time>
      </trkpt>
      <trkpt lat="43.50709" lon="6.77481">
        <ele>177.02</ele>
        <time>2012-05-25T08:43:17Z</time>
      </trkpt>
      <trkpt lat="43.50704" lon="6.7752">
        <ele>178.94</ele>
        <time>2012-05-25T08:43:38Z</time>
      </trkpt>
      <trkpt lat="43.50693" lon="6.77578">
        <ele>181.83</ele>
        <time>2012-05-25T08:44:06Z</time>
      </trkpt>
      <trkpt lat="43.50697" lon="6.77611">
        <ele>183.75</ele>
        <time>2012-05-25T08:44:22Z</time>
      </trkpt>
      <trkpt lat="43.50715" lon="6.77644">
        <ele>185.67</ele>
        <time>2012-05-25T08:44:41Z</time>
      </trkpt>
      <trkpt lat="43.50735" lon="6.77659">
        <ele>189.04</ele>
        <time>2012-05-25T08:44:57Z</time>
      </trkpt>
      <trkpt lat="43.50765" lon="6.77683">
        <ele>190.96</ele>
        <time>2012-05-25T08:45:18Z</time>
      </trkpt>
      <trkpt lat="43.50768" lon="6.77722">
        <ele>191.92</ele>
        <time>2012-05-25T08:45:35Z</time>
      </trkpt>
      <trkpt lat="43.50743" lon="6.77754">
        <ele>194.8</ele>
        <time>2012-05-25T08:45:56Z</time>
      </trkpt>
      <trkpt lat="43.50731" lon="6.77773">
        <ele>197.69</ele>
        <time>2012-05-25T08:46:08Z</time>
      </trkpt>
      <trkpt lat="43.50735" lon="6.77799">
        <ele>199.61</ele>
        <time>2012-05-25T08:46:23Z</time>
      </trkpt>
      <trkpt lat="43.50763" lon="6.7781">
        <ele>201.05</ele>
        <time>2012-05-25T08:46:41Z</time>
      </trkpt>
      <trkpt lat="43.50784" lon="6.77825">
        <ele>204.42</ele>
        <time>2012-05-25T08:46:57Z</time>
      </trkpt>
      <trkpt lat="43.50811" lon="6.77829">
        <ele>207.3</ele>
        <time>2012-05-25T08:47:15Z</time>
      </trkpt>
      <trkpt lat="43.50847" lon="6.77834">
        <ele>210.19</ele>
        <time>2012-05-25T08:47:38Z</time>
      </trkpt>
      <trkpt lat="43.50881" lon="6.77841">
        <ele>212.59</ele>
        <time>2012-05-25T08:47:59Z</time>
      </trkpt>
      <trkpt lat="43.50916" lon="6.77845">
        <ele>214.99</ele>
        <time>2012-05-25T08:48:21Z</time>
      </trkpt>
      <trkpt lat="43.50948" lon="6.7786">
        <ele>217.88</ele>
        <time>2012-05-25T08:48:43Z</time>
      </trkpt>
      <trkpt lat="43.50973" lon="6.77872">
        <ele>220.28</ele>
        <time>2012-05-25T08:49:00Z</time>
      </trkpt>
      <trkpt lat="43.51011" lon="6.77859">
        <ele>223.16</ele>
        <time>2012-05-25T08:49:25Z</time>
      </trkpt>
      <trkpt lat="43.51038" lon="6.77849">
        <ele>225.09</ele>
        <time>2012-05-25T08:49:43Z</time>
      </trkpt>
      <trkpt lat="43.51071" lon="6.77846">
        <ele>228.45</ele>
        <time>2012-05-25T08:50:04Z</time>
      </trkpt>
      <trkpt lat="43.51101" lon="6.7785">
        <ele>230.37</ele>
        <time>2012-05-25T08:50:24Z</time>
      </trkpt>
      <trkpt lat="43.51124" lon="6.7787">
        <ele>233.74</ele>
        <time>2012-05-25T08:50:42Z</time>
      </trkpt>
      <trkpt lat="43.51128" lon="6.779">
        <ele>235.18</ele>
        <time>2012-05-25T08:50:57Z</time>
      </trkpt>
      <trkpt lat="43.51117" lon="6.77938">
        <ele>236.62</ele>
        <time>2012-05-25T08:51:13Z</time>
      </trkpt>
      <trkpt lat="43.51111" lon="6.78">
        <ele>239.51</ele>
        <time>2012-05-25T08:51:34Z</time>
      </trkpt>
      <trkpt lat="43.51104" lon="6.7805">
        <ele>240.47</ele>
        <time>2012-05-25T08:51:52Z</time>
      </trkpt>
      <trkpt lat="43.51102" lon="6.78049">
        <ele>240.47</ele>
        <time>2012-05-25T08:52:04Z</time>
      </trkpt>
      <trkpt lat="43.51105" lon="6.78048">
        <ele>240.95</ele>
        <time>2012-05-25T08:52:19Z</time>
      </trkpt>
      <trkpt lat="43.51104" lon="6.78048">
        <ele>239.99</ele>
        <time>2012-05-25T08:52:41Z</time>
      </trkpt>
      <trkpt lat="43.51103" lon="6.78051">
        <ele>240.47</ele>
        <time>2012-05-25T08:53:08Z</time>
      </trkpt>
      <trkpt lat="43.51104" lon="6.78052">
        <ele>240.47</ele>
        <time>2012-05-25T08:53:30Z</time>
      </trkpt>
      <trkpt lat="43.51098" lon="6.78065">
        <ele>240.47</ele>
        <time>2012-05-25T08:53:48Z</time>
      </trkpt>
      <trkpt lat="43.51102" lon="6.78054">
        <ele>240.47</ele>
        <time>2012-05-25T08:54:20Z</time>
      </trkpt>
      <trkpt lat="43.51102" lon="6.78054">
        <ele>239.99</ele>
        <time>2012-05-25T08:54:44Z</time>
      </trkpt>
      <trkpt lat="43.51103" lon="6.78053">
        <ele>240.47</ele>
        <time>2012-05-25T08:55:03Z</time>
      </trkpt>
      <trkpt lat="43.51107" lon="6.78051">
        <ele>240.47</ele>
        <time>2012-05-25T08:55:23Z</time>
      </trkpt>
      <trkpt lat="43.51105" lon="6.78052">
        <ele>241.43</ele>
        <time>2012-05-25T08:56:14Z</time>
      </trkpt>
      <trkpt lat="43.51102" lon="6.78054">
        <ele>241.43</ele>
        <time>2012-05-25T08:56:48Z</time>
      </trkpt>
      <trkpt lat="43.51103" lon="6.78056">
        <ele>241.43</ele>
        <time>2012-05-25T08:57:00Z</time>
      </trkpt>
      <trkpt lat="43.511" lon="6.78067">
        <ele>241.43</ele>
        <time>2012-05-25T08:57:29Z</time>
      </trkpt>
      <trkpt lat="43.51086" lon="6.78126">
        <ele>242.39</ele>
        <time>2012-05-25T08:57:49Z</time>
      </trkpt>
      <trkpt lat="43.51072" lon="6.78179">
        <ele>241.43</ele>
        <time>2012-05-25T08:58:01Z</time>
      </trkpt>
      <trkpt lat="43.51034" lon="6.78202">
        <ele>242.87</ele>
        <time>2012-05-25T08:58:13Z</time>
      </trkpt>
      <trkpt lat="43.50992" lon="6.78218">
        <ele>244.79</ele>
        <time>2012-05-25T08:58:28Z</time>
      </trkpt>
      <trkpt lat="43.50942" lon="6.78256">
        <ele>246.72</ele>
        <time>2012-05-25T08:58:48Z</time>
      </trkpt>
      <trkpt lat="43.509" lon="6.78319">
        <ele>249.12</ele>
        <time>2012-05-25T08:59:10Z</time>
      </trkpt>
      <trkpt lat="43.50862" lon="6.78375">
        <ele>252.48</ele>
        <time>2012-05-25T08:59:32Z</time>
      </trkpt>
      <trkpt lat="43.5087" lon="6.7841">
        <ele>254.41</ele>
        <time>2012-05-25T08:59:44Z</time>
      </trkpt>
      <trkpt lat="43.50896" lon="6.78459">
        <ele>256.33</ele>
        <time>2012-05-25T09:00:03Z</time>
      </trkpt>
      <trkpt lat="43.50925" lon="6.78505">
        <ele>258.73</ele>
        <time>2012-05-25T09:00:23Z</time>
      </trkpt>
      <trkpt lat="43.50917" lon="6.78529">
        <ele>260.65</ele>
        <time>2012-05-25T09:00:35Z</time>
      </trkpt>
      <trkpt lat="43.5086" lon="6.78548">
        <ele>261.14</ele>
        <time>2012-05-25T09:00:53Z</time>
      </trkpt>
      <trkpt lat="43.50797" lon="6.78582">
        <ele>263.54</ele>
        <time>2012-05-25T09:01:14Z</time>
      </trkpt>
      <trkpt lat="43.50754" lon="6.78611">
        <ele>264.98</ele>
        <time>2012-05-25T09:01:29Z</time>
      </trkpt>
      <trkpt lat="43.5071" lon="6.7859">
        <ele>266.42</ele>
        <time>2012-05-25T09:01:43Z</time>
      </trkpt>
      <trkpt lat="43.50655" lon="6.78587">
        <ele>267.86</ele>
        <time>2012-05-25T09:01:59Z</time>
      </trkpt>
      <trkpt lat="43.50597" lon="6.78579">
        <ele>269.31</ele>
        <time>2012-05-25T09:02:16Z</time>
      </trkpt>
      <trkpt lat="43.5055" lon="6.78551">
        <ele>270.27</ele>
        <time>2012-05-25T09:02:34Z</time>
      </trkpt>
      <trkpt lat="43.50542" lon="6.78577">
        <ele>271.23</ele>
        <time>2012-05-25T09:02:45Z</time>
      </trkpt>
      <trkpt lat="43.50555" lon="6.78644">
        <ele>271.71</ele>
        <time>2012-05-25T09:03:03Z</time>
      </trkpt>
      <trkpt lat="43.50576" lon="6.78708">
        <ele>273.15</ele>
        <time>2012-05-25T09:03:20Z</time>
      </trkpt>
      <trkpt lat="43.50566" lon="6.78773">
        <ele>274.59</ele>
        <time>2012-05-25T09:03:39Z</time>
      </trkpt>
      <trkpt lat="43.50538" lon="6.78806">
        <ele>276.52</ele>
        <time>2012-05-25T09:03:55Z</time>
      </trkpt>
      <trkpt lat="43.50529" lon="6.78869">
        <ele>278.92</ele>
        <time>2012-05-25T09:04:15Z</time>
      </trkpt>
      <trkpt lat="43.50553" lon="6.78901">
        <ele>280.36</ele>
        <time>2012-05-25T09:04:30Z</time>
      </trkpt>
      <trkpt lat="43.50572" lon="6.78935">
        <ele>281.8</ele>
        <time>2012-05-25T09:04:46Z</time>
      </trkpt>
      <trkpt lat="43.5056" lon="6.78994">
        <ele>284.21</ele>
        <time>2012-05-25T09:05:07Z</time>
      </trkpt>
      <trkpt lat="43.50542" lon="6.79041">
        <ele>286.13</ele>
        <time>2012-05-25T09:05:27Z</time>
      </trkpt>
      <trkpt lat="43.5053" lon="6.79067">
        <ele>287.09</ele>
        <time>2012-05-25T09:05:41Z</time>
      </trkpt>
      <trkpt lat="43.50529" lon="6.79078">
        <ele>287.57</ele>
        <time>2012-05-25T09:05:55Z</time>
      </trkpt>
      <trkpt lat="43.50529" lon="6.79079">
        <ele>287.57</ele>
        <time>2012-05-25T09:06:39Z</time>
      </trkpt>
      <trkpt lat="43.50527" lon="6.79075">
        <ele>287.57</ele>
        <time>2012-05-25T09:08:32Z</time>
      </trkpt>
      <trkpt lat="43.50526" lon="6.79072">
        <ele>287.09</ele>
        <time>2012-05-25T09:08:50Z</time>
      </trkpt>
      <trkpt lat="43.50526" lon="6.79077">
        <ele>287.57</ele>
        <time>2012-05-25T09:09:16Z</time>
      </trkpt>
      <trkpt lat="43.50526" lon="6.79075">
        <ele>288.05</ele>
        <time>2012-05-25T09:09:51Z</time>
      </trkpt>
      <trkpt lat="43.50526" lon="6.79076">
        <ele>288.05</ele>
        <time>2012-05-25T09:10:26Z</time>
      </trkpt>
      <trkpt lat="43.50526" lon="6.79077">
        <ele>288.05</ele>
        <time>2012-05-25T09:10:47Z</time>
      </trkpt>
      <trkpt lat="43.50524" lon="6.79076">
        <ele>288.05</ele>
        <time>2012-05-25T09:10:51Z</time>
      </trkpt>
      <trkpt lat="43.50503" lon="6.79087">
        <ele>289.01</ele>
        <time>2012-05-25T09:11:05Z</time>
      </trkpt>
      <trkpt lat="43.50469" lon="6.79066">
        <ele>290.46</ele>
        <time>2012-05-25T09:11:25Z</time>
      </trkpt>
      <trkpt lat="43.50441" lon="6.79057">
        <ele>292.86</ele>
        <time>2012-05-25T09:11:43Z</time>
      </trkpt>
      <trkpt lat="43.50417" lon="6.79053">
        <ele>293.82</ele>
        <time>2012-05-25T09:11:59Z</time>
      </trkpt>
      <trkpt lat="43.50423" lon="6.79099">
        <ele>295.74</ele>
        <time>2012-05-25T09:12:18Z</time>
      </trkpt>
      <trkpt lat="43.50408" lon="6.79132">
        <ele>297.18</ele>
        <time>2012-05-25T09:12:35Z</time>
      </trkpt>
      <trkpt lat="43.5038" lon="6.79176">
        <ele>299.11</ele>
        <time>2012-05-25T09:12:59Z</time>
      </trkpt>
      <trkpt lat="43.50379" lon="6.79221">
        <ele>300.55</ele>
        <time>2012-05-25T09:13:17Z</time>
      </trkpt>
      <trkpt lat="43.50359" lon="6.7925">
        <ele>301.99</ele>
        <time>2012-05-25T09:13:34Z</time>
      </trkpt>
      <trkpt lat="43.50338" lon="6.79279">
        <ele>302.95</ele>
        <time>2012-05-25T09:13:51Z</time>
      </trkpt>
      <trkpt lat="43.50296" lon="6.79286">
        <ele>305.84</ele>
        <time>2012-05-25T09:14:14Z</time>
      </trkpt>
      <trkpt lat="43.50262" lon="6.79275">
        <ele>307.28</ele>
        <time>2012-05-25T09:14:34Z</time>
      </trkpt>
      <trkpt lat="43.50243" lon="6.793">
        <ele>308.72</ele>
        <time>2012-05-25T09:14:51Z</time>
      </trkpt>
      <trkpt lat="43.50215" lon="6.79311">
        <ele>310.16</ele>
        <time>2012-05-25T09:15:08Z</time>
      </trkpt>
      <trkpt lat="43.5019" lon="6.79314">
        <ele>313.05</ele>
        <time>2012-05-25T09:15:26Z</time>
      </trkpt>
      <trkpt lat="43.50185" lon="6.79323">
        <ele>313.53</ele>
        <time>2012-05-25T09:15:33Z</time>
      </trkpt>
      <trkpt lat="43.50179" lon="6.79321">
        <ele>314.01</ele>
        <time>2012-05-25T09:15:38Z</time>
      </trkpt>
      <trkpt lat="43.50167" lon="6.79287">
        <ele>316.89</ele>
        <time>2012-05-25T09:15:57Z</time>
      </trkpt>
      <trkpt lat="43.50167" lon="6.79252">
        <ele>319.78</ele>
        <time>2012-05-25T09:16:14Z</time>
      </trkpt>
      <trkpt lat="43.50175" lon="6.79218">
        <ele>322.18</ele>
        <time>2012-05-25T09:16:32Z</time>
      </trkpt>
      <trkpt lat="43.50179" lon="6.79183">
        <ele>324.58</ele>
        <time>2012-05-25T09:16:49Z</time>
      </trkpt>
      <trkpt lat="43.50194" lon="6.7914">
        <ele>326.5</ele>
        <time>2012-05-25T09:17:12Z</time>
      </trkpt>
      <trkpt lat="43.50204" lon="6.79099">
        <ele>328.91</ele>
        <time>2012-05-25T09:17:33Z</time>
      </trkpt>
      <trkpt lat="43.50208" lon="6.79064">
        <ele>331.79</ele>
        <time>2012-05-25T09:17:50Z</time>
      </trkpt>
      <trkpt lat="43.50212" lon="6.79032">
        <ele>333.23</ele>
        <time>2012-05-25T09:18:05Z</time>
      </trkpt>
      <trkpt lat="43.50221" lon="6.78993">
        <ele>333.23</ele>
        <time>2012-05-25T09:18:22Z</time>
      </trkpt>
      <trkpt lat="43.5022" lon="6.78997">
        <ele>333.23</ele>
        <time>2012-05-25T09:18:34Z</time>
      </trkpt>
      <trkpt lat="43.50219" lon="6.78999">
        <ele>333.23</ele>
        <time>2012-05-25T09:18:48Z</time>
      </trkpt>
      <trkpt lat="43.50211" lon="6.79037">
        <ele>333.23</ele>
        <time>2012-05-25T09:19:05Z</time>
      </trkpt>
      <trkpt lat="43.50206" lon="6.79087">
        <ele>332.27</ele>
        <time>2012-05-25T09:19:20Z</time>
      </trkpt>
      <trkpt lat="43.50206" lon="6.79098">
        <ele>331.31</ele>
        <time>2012-05-25T09:19:22Z</time>
      </trkpt>
      <trkpt lat="43.50192" lon="6.7915">
        <ele>327.47</ele>
        <time>2012-05-25T09:19:31Z</time>
      </trkpt>
      <trkpt lat="43.50179" lon="6.7919">
        <ele>325.54</ele>
        <time>2012-05-25T09:19:37Z</time>
      </trkpt>
      <trkpt lat="43.50176" lon="6.79226">
        <ele>323.62</ele>
        <time>2012-05-25T09:19:43Z</time>
      </trkpt>
      <trkpt lat="43.50166" lon="6.79275">
        <ele>320.26</ele>
        <time>2012-05-25T09:19:52Z</time>
      </trkpt>
      <trkpt lat="43.50171" lon="6.79304">
        <ele>317.85</ele>
        <time>2012-05-25T09:19:57Z</time>
      </trkpt>
      <trkpt lat="43.50193" lon="6.79334">
        <ele>314.97</ele>
        <time>2012-05-25T09:20:06Z</time>
      </trkpt>
      <trkpt lat="43.50198" lon="6.79344">
        <ele>314.01</ele>
        <time>2012-05-25T09:20:17Z</time>
      </trkpt>
      <trkpt lat="43.50198" lon="6.79342">
        <ele>314.49</ele>
        <time>2012-05-25T09:20:29Z</time>
      </trkpt>
      <trkpt lat="43.502" lon="6.79343">
        <ele>314.01</ele>
        <time>2012-05-25T09:20:44Z</time>
      </trkpt>
      <trkpt lat="43.50201" lon="6.79341">
        <ele>314.01</ele>
        <time>2012-05-25T09:21:05Z</time>
      </trkpt>
      <trkpt lat="43.50203" lon="6.7934">
        <ele>314.49</ele>
        <time>2012-05-25T09:21:25Z</time>
      </trkpt>
      <trkpt lat="43.50207" lon="6.79345">
        <ele>313.53</ele>
        <time>2012-05-25T09:21:38Z</time>
      </trkpt>
      <trkpt lat="43.50208" lon="6.79349">
        <ele>312.09</ele>
        <time>2012-05-25T09:21:43Z</time>
      </trkpt>
      <trkpt lat="43.50209" lon="6.79353">
        <ele>311.6</ele>
        <time>2012-05-25T09:21:53Z</time>
      </trkpt>
      <trkpt lat="43.50212" lon="6.79349">
        <ele>312.09</ele>
        <time>2012-05-25T09:21:58Z</time>
      </trkpt>
      <trkpt lat="43.50219" lon="6.79342">
        <ele>311.6</ele>
        <time>2012-05-25T09:22:12Z</time>
      </trkpt>
      <trkpt lat="43.50216" lon="6.79348">
        <ele>311.6</ele>
        <time>2012-05-25T09:22:33Z</time>
      </trkpt>
      <trkpt lat="43.50209" lon="6.79353">
        <ele>312.09</ele>
        <time>2012-05-25T09:22:52Z</time>
      </trkpt>
      <trkpt lat="43.50209" lon="6.79354">
        <ele>311.6</ele>
        <time>2012-05-25T09:23:00Z</time>
      </trkpt>
      <trkpt lat="43.50206" lon="6.79357">
        <ele>311.6</ele>
        <time>2012-05-25T09:23:21Z</time>
      </trkpt>
      <trkpt lat="43.50206" lon="6.79358">
        <ele>312.09</ele>
        <time>2012-05-25T09:23:32Z</time>
      </trkpt>
      <trkpt lat="43.50194" lon="6.79392">
        <ele>312.09</ele>
        <time>2012-05-25T09:23:47Z</time>
      </trkpt>
      <trkpt lat="43.50173" lon="6.79413">
        <ele>313.05</ele>
        <time>2012-05-25T09:24:01Z</time>
      </trkpt>
      <trkpt lat="43.50169" lon="6.79412">
        <ele>313.05</ele>
        <time>2012-05-25T09:24:04Z</time>
      </trkpt>
      <trkpt lat="43.50164" lon="6.79415">
        <ele>313.05</ele>
        <time>2012-05-25T09:24:09Z</time>
      </trkpt>
      <trkpt lat="43.50162" lon="6.79432">
        <ele>313.05</ele>
        <time>2012-05-25T09:24:14Z</time>
      </trkpt>
      <trkpt lat="43.50154" lon="6.79441">
        <ele>313.53</ele>
        <time>2012-05-25T09:24:19Z</time>
      </trkpt>
      <trkpt lat="43.50135" lon="6.79458">
        <ele>314.49</ele>
        <time>2012-05-25T09:24:33Z</time>
      </trkpt>
      <trkpt lat="43.50137" lon="6.79461">
        <ele>314.49</ele>
        <time>2012-05-25T09:24:54Z</time>
      </trkpt>
      <trkpt lat="43.50134" lon="6.79474">
        <ele>315.45</ele>
        <time>2012-05-25T09:25:26Z</time>
      </trkpt>
      <trkpt lat="43.50121" lon="6.79509">
        <ele>317.85</ele>
        <time>2012-05-25T09:25:46Z</time>
      </trkpt>
      <trkpt lat="43.5011" lon="6.79555">
        <ele>319.78</ele>
        <time>2012-05-25T09:26:08Z</time>
      </trkpt>
      <trkpt lat="43.50086" lon="6.79589">
        <ele>322.18</ele>
        <time>2012-05-25T09:26:27Z</time>
      </trkpt>
      <trkpt lat="43.50074" lon="6.79636">
        <ele>324.1</ele>
        <time>2012-05-25T09:26:45Z</time>
      </trkpt>
      <trkpt lat="43.50054" lon="6.79697">
        <ele>326.99</ele>
        <time>2012-05-25T09:27:05Z</time>
      </trkpt>
      <trkpt lat="43.5003" lon="6.79747">
        <ele>329.87</ele>
        <time>2012-05-25T09:27:23Z</time>
      </trkpt>
      <trkpt lat="43.50008" lon="6.7979">
        <ele>332.27</ele>
        <time>2012-05-25T09:27:38Z</time>
      </trkpt>
      <trkpt lat="43.49959" lon="6.7983">
        <ele>335.16</ele>
        <time>2012-05-25T09:27:59Z</time>
      </trkpt>
      <trkpt lat="43.4992" lon="6.79866">
        <ele>338.52</ele>
        <time>2012-05-25T09:28:16Z</time>
      </trkpt>
      <trkpt lat="43.49883" lon="6.79912">
        <ele>341.41</ele>
        <time>2012-05-25T09:28:34Z</time>
      </trkpt>
      <trkpt lat="43.49841" lon="6.79958">
        <ele>344.77</ele>
        <time>2012-05-25T09:28:54Z</time>
      </trkpt>
      <trkpt lat="43.49802" lon="6.80004">
        <ele>347.65</ele>
        <time>2012-05-25T09:29:14Z</time>
      </trkpt>
      <trkpt lat="43.4977" lon="6.8005">
        <ele>350.54</ele>
        <time>2012-05-25T09:29:34Z</time>
      </trkpt>
      <trkpt lat="43.49735" lon="6.8008">
        <ele>353.42</ele>
        <time>2012-05-25T09:29:52Z</time>
      </trkpt>
      <trkpt lat="43.49697" lon="6.80126">
        <ele>356.31</ele>
        <time>2012-05-25T09:30:15Z</time>
      </trkpt>
      <trkpt lat="43.49653" lon="6.80162">
        <ele>359.67</ele>
        <time>2012-05-25T09:30:37Z</time>
      </trkpt>
      <trkpt lat="43.49615" lon="6.80164">
        <ele>360.15</ele>
        <time>2012-05-25T09:30:53Z</time>
      </trkpt>
      <trkpt lat="43.4958" lon="6.80178">
        <ele>361.11</ele>
        <time>2012-05-25T09:31:10Z</time>
      </trkpt>
      <trkpt lat="43.49594" lon="6.80212">
        <ele>362.55</ele>
        <time>2012-05-25T09:31:25Z</time>
      </trkpt>
      <trkpt lat="43.49619" lon="6.80259">
        <ele>364.96</ele>
        <time>2012-05-25T09:31:44Z</time>
      </trkpt>
      <trkpt lat="43.49652" lon="6.80309">
        <ele>367.84</ele>
        <time>2012-05-25T09:32:05Z</time>
      </trkpt>
      <trkpt lat="43.49654" lon="6.80366">
        <ele>370.73</ele>
        <time>2012-05-25T09:32:22Z</time>
      </trkpt>
      <trkpt lat="43.49688" lon="6.80412">
        <ele>373.13</ele>
        <time>2012-05-25T09:32:41Z</time>
      </trkpt>
      <trkpt lat="43.4972" lon="6.80468">
        <ele>376.01</ele>
        <time>2012-05-25T09:33:02Z</time>
      </trkpt>
      <trkpt lat="43.49735" lon="6.80513">
        <ele>378.42</ele>
        <time>2012-05-25T09:33:23Z</time>
      </trkpt>
      <trkpt lat="43.49737" lon="6.8054">
        <ele>380.82</ele>
        <time>2012-05-25T09:33:38Z</time>
      </trkpt>
      <trkpt lat="43.49741" lon="6.80544">
        <ele>381.3</ele>
        <time>2012-05-25T09:33:56Z</time>
      </trkpt>
      <trkpt lat="43.4974" lon="6.80544">
        <ele>381.3</ele>
        <time>2012-05-25T09:33:57Z</time>
      </trkpt>
      <trkpt lat="43.49717" lon="6.80571">
        <ele>380.82</ele>
        <time>2012-05-25T09:34:11Z</time>
      </trkpt>
      <trkpt lat="43.49678" lon="6.80613">
        <ele>381.3</ele>
        <time>2012-05-25T09:34:29Z</time>
      </trkpt>
      <trkpt lat="43.49666" lon="6.8063">
        <ele>380.34</ele>
        <time>2012-05-25T09:34:43Z</time>
      </trkpt>
      <trkpt lat="43.49665" lon="6.80627">
        <ele>380.82</ele>
        <time>2012-05-25T09:35:00Z</time>
      </trkpt>
      <trkpt lat="43.49661" lon="6.80625">
        <ele>380.34</ele>
        <time>2012-05-25T09:35:21Z</time>
      </trkpt>
      <trkpt lat="43.49658" lon="6.80626">
        <ele>379.38</ele>
        <time>2012-05-25T09:35:24Z</time>
      </trkpt>
      <trkpt lat="43.49651" lon="6.8063">
        <ele>378.42</ele>
        <time>2012-05-25T09:35:42Z</time>
      </trkpt>
      <trkpt lat="43.49651" lon="6.80629">
        <ele>378.9</ele>
        <time>2012-05-25T09:36:02Z</time>
      </trkpt>
      <trkpt lat="43.49651" lon="6.80629">
        <ele>378.42</ele>
        <time>2012-05-25T09:36:28Z</time>
      </trkpt>
      <trkpt lat="43.49651" lon="6.80628">
        <ele>378.9</ele>
        <time>2012-05-25T09:37:26Z</time>
      </trkpt>
      <trkpt lat="43.49649" lon="6.80625">
        <ele>378.9</ele>
        <time>2012-05-25T09:38:09Z</time>
      </trkpt>
      <trkpt lat="43.4965" lon="6.80628">
        <ele>379.38</ele>
        <time>2012-05-25T09:39:21Z</time>
      </trkpt>
      <trkpt lat="43.49649" lon="6.80629">
        <ele>379.38</ele>
        <time>2012-05-25T09:40:50Z</time>
      </trkpt>
      <trkpt lat="43.49649" lon="6.80629">
        <ele>378.9</ele>
        <time>2012-05-25T09:41:37Z</time>
      </trkpt>
      <trkpt lat="43.49649" lon="6.80629">
        <ele>379.38</ele>
        <time>2012-05-25T09:42:00Z</time>
      </trkpt>
      <trkpt lat="43.4965" lon="6.80629">
        <ele>379.38</ele>
        <time>2012-05-25T09:42:22Z</time>
      </trkpt>
      <trkpt lat="43.49654" lon="6.80625">
        <ele>379.86</ele>
        <time>2012-05-25T09:42:34Z</time>
      </trkpt>
      <trkpt lat="43.4966" lon="6.80622">
        <ele>380.82</ele>
        <time>2012-05-25T09:42:48Z</time>
      </trkpt>
      <trkpt lat="43.49666" lon="6.80627">
        <ele>382.26</ele>
        <time>2012-05-25T09:43:02Z</time>
      </trkpt>
      <trkpt lat="43.49668" lon="6.80625">
        <ele>382.26</ele>
        <time>2012-05-25T09:43:29Z</time>
      </trkpt>
      <trkpt lat="43.49669" lon="6.80625">
        <ele>382.26</ele>
        <time>2012-05-25T09:43:36Z</time>
      </trkpt>
      <trkpt lat="43.49675" lon="6.80628">
        <ele>382.26</ele>
        <time>2012-05-25T09:43:42Z</time>
      </trkpt>
      <trkpt lat="43.49705" lon="6.8066">
        <ele>381.78</ele>
        <time>2012-05-25T09:43:56Z</time>
      </trkpt>
      <trkpt lat="43.49714" lon="6.80669">
        <ele>381.78</ele>
        <time>2012-05-25T09:43:59Z</time>
      </trkpt>
      <trkpt lat="43.49738" lon="6.80747">
        <ele>380.34</ele>
        <time>2012-05-25T09:44:10Z</time>
      </trkpt>
      <trkpt lat="43.49743" lon="6.80835">
        <ele>378.42</ele>
        <time>2012-05-25T09:44:21Z</time>
      </trkpt>
      <trkpt lat="43.49755" lon="6.80874">
        <ele>377.94</ele>
        <time>2012-05-25T09:44:27Z</time>
      </trkpt>
      <trkpt lat="43.49768" lon="6.80897">
        <ele>378.9</ele>
        <time>2012-05-25T09:44:33Z</time>
      </trkpt>
      <trkpt lat="43.49808" lon="6.80922">
        <ele>382.74</ele>
        <time>2012-05-25T09:44:47Z</time>
      </trkpt>
      <trkpt lat="43.49847" lon="6.8094">
        <ele>385.63</ele>
        <time>2012-05-25T09:45:02Z</time>
      </trkpt>
      <trkpt lat="43.49887" lon="6.80955">
        <ele>388.99</ele>
        <time>2012-05-25T09:45:19Z</time>
      </trkpt>
      <trkpt lat="43.49916" lon="6.8097">
        <ele>391.39</ele>
        <time>2012-05-25T09:45:32Z</time>
      </trkpt>
      <trkpt lat="43.49949" lon="6.80995">
        <ele>394.28</ele>
        <time>2012-05-25T09:45:48Z</time>
      </trkpt>
      <trkpt lat="43.49977" lon="6.81017">
        <ele>397.64</ele>
        <time>2012-05-25T09:46:03Z</time>
      </trkpt>
      <trkpt lat="43.50011" lon="6.81033">
        <ele>400.05</ele>
        <time>2012-05-25T09:46:19Z</time>
      </trkpt>
      <trkpt lat="43.50042" lon="6.81036">
        <ele>402.93</ele>
        <time>2012-05-25T09:46:32Z</time>
      </trkpt>
      <trkpt lat="43.50065" lon="6.81029">
        <ele>405.33</ele>
        <time>2012-05-25T09:46:44Z</time>
      </trkpt>
      <trkpt lat="43.50099" lon="6.81018">
        <ele>408.22</ele>
        <time>2012-05-25T09:47:01Z</time>
      </trkpt>
      <trkpt lat="43.50129" lon="6.81001">
        <ele>411.58</ele>
        <time>2012-05-25T09:47:17Z</time>
      </trkpt>
      <trkpt lat="43.50157" lon="6.80991">
        <ele>414.47</ele>
        <time>2012-05-25T09:47:32Z</time>
      </trkpt>
      <trkpt lat="43.5019" lon="6.80983">
        <ele>417.83</ele>
        <time>2012-05-25T09:47:51Z</time>
      </trkpt>
      <trkpt lat="43.50228" lon="6.80972">
        <ele>421.19</ele>
        <time>2012-05-25T09:48:13Z</time>
      </trkpt>
      <trkpt lat="43.50259" lon="6.80963">
        <ele>424.08</ele>
        <time>2012-05-25T09:48:31Z</time>
      </trkpt>
      <trkpt lat="43.50289" lon="6.80956">
        <ele>426.96</ele>
        <time>2012-05-25T09:48:49Z</time>
      </trkpt>
      <trkpt lat="43.50327" lon="6.80958">
        <ele>429.85</ele>
        <time>2012-05-25T09:49:10Z</time>
      </trkpt>
      <trkpt lat="43.50357" lon="6.80969">
        <ele>433.21</ele>
        <time>2012-05-25T09:49:27Z</time>
      </trkpt>
      <trkpt lat="43.50384" lon="6.8099">
        <ele>436.1</ele>
        <time>2012-05-25T09:49:44Z</time>
      </trkpt>
      <trkpt lat="43.50409" lon="6.81016">
        <ele>439.46</ele>
        <time>2012-05-25T09:50:01Z</time>
      </trkpt>
      <trkpt lat="43.50426" lon="6.81054">
        <ele>442.34</ele>
        <time>2012-05-25T09:50:20Z</time>
      </trkpt>
      <trkpt lat="43.50436" lon="6.81097">
        <ele>445.71</ele>
        <time>2012-05-25T09:50:39Z</time>
      </trkpt>
      <trkpt lat="43.50441" lon="6.81137">
        <ele>448.11</ele>
        <time>2012-05-25T09:50:57Z</time>
      </trkpt>
      <trkpt lat="43.50441" lon="6.8117">
        <ele>450.52</ele>
        <time>2012-05-25T09:51:12Z</time>
      </trkpt>
      <trkpt lat="43.5044" lon="6.81204">
        <ele>452.92</ele>
        <time>2012-05-25T09:51:28Z</time>
      </trkpt>
      <trkpt lat="43.50439" lon="6.81248">
        <ele>456.28</ele>
        <time>2012-05-25T09:51:49Z</time>
      </trkpt>
      <trkpt lat="43.50446" lon="6.81284">
        <ele>458.21</ele>
        <time>2012-05-25T09:52:06Z</time>
      </trkpt>
      <trkpt lat="43.50458" lon="6.81305">
        <ele>460.61</ele>
        <time>2012-05-25T09:52:20Z</time>
      </trkpt>
      <trkpt lat="43.50476" lon="6.81316">
        <ele>462.53</ele>
        <time>2012-05-25T09:52:33Z</time>
      </trkpt>
      <trkpt lat="43.50471" lon="6.81327">
        <ele>463.49</ele>
        <time>2012-05-25T09:52:40Z</time>
      </trkpt>
      <trkpt lat="43.50436" lon="6.81306">
        <ele>465.42</ele>
        <time>2012-05-25T09:53:00Z</time>
      </trkpt>
      <trkpt lat="43.50421" lon="6.81267">
        <ele>468.78</ele>
        <time>2012-05-25T09:53:19Z</time>
      </trkpt>
      <trkpt lat="43.50415" lon="6.81233">
        <ele>470.7</ele>
        <time>2012-05-25T09:53:33Z</time>
      </trkpt>
      <trkpt lat="43.50404" lon="6.81192">
        <ele>473.11</ele>
        <time>2012-05-25T09:53:50Z</time>
      </trkpt>
      <trkpt lat="43.50398" lon="6.81149">
        <ele>475.51</ele>
        <time>2012-05-25T09:54:07Z</time>
      </trkpt>
      <trkpt lat="43.50389" lon="6.81116">
        <ele>476.95</ele>
        <time>2012-05-25T09:54:20Z</time>
      </trkpt>
      <trkpt lat="43.5037" lon="6.81083">
        <ele>478.87</ele>
        <time>2012-05-25T09:54:38Z</time>
      </trkpt>
      <trkpt lat="43.50336" lon="6.81066">
        <ele>481.76</ele>
        <time>2012-05-25T09:55:00Z</time>
      </trkpt>
      <trkpt lat="43.50304" lon="6.81081">
        <ele>484.64</ele>
        <time>2012-05-25T09:55:20Z</time>
      </trkpt>
      <trkpt lat="43.50276" lon="6.81107">
        <ele>487.05</ele>
        <time>2012-05-25T09:55:38Z</time>
      </trkpt>
      <trkpt lat="43.50237" lon="6.81136">
        <ele>489.93</ele>
        <time>2012-05-25T09:56:02Z</time>
      </trkpt>
      <trkpt lat="43.50215" lon="6.81175">
        <ele>493.29</ele>
        <time>2012-05-25T09:56:22Z</time>
      </trkpt>
      <trkpt lat="43.50212" lon="6.81217">
        <ele>496.18</ele>
        <time>2012-05-25T09:56:40Z</time>
      </trkpt>
      <trkpt lat="43.50213" lon="6.8126">
        <ele>498.58</ele>
        <time>2012-05-25T09:56:57Z</time>
      </trkpt>
      <trkpt lat="43.50213" lon="6.81281">
        <ele>499.54</ele>
        <time>2012-05-25T09:57:06Z</time>
      </trkpt>
      <trkpt lat="43.50213" lon="6.81315">
        <ele>500.98</ele>
        <time>2012-05-25T09:57:20Z</time>
      </trkpt>
      <trkpt lat="43.50212" lon="6.81351">
        <ele>503.39</ele>
        <time>2012-05-25T09:57:36Z</time>
      </trkpt>
      <trkpt lat="43.50197" lon="6.81387">
        <ele>506.27</ele>
        <time>2012-05-25T09:57:53Z</time>
      </trkpt>
      <trkpt lat="43.50189" lon="6.81436">
        <ele>509.16</ele>
        <time>2012-05-25T09:58:15Z</time>
      </trkpt>
      <trkpt lat="43.50193" lon="6.81487">
        <ele>512.04</ele>
        <time>2012-05-25T09:58:37Z</time>
      </trkpt>
      <trkpt lat="43.50196" lon="6.81536">
        <ele>514.92</ele>
        <time>2012-05-25T09:58:59Z</time>
      </trkpt>
      <trkpt lat="43.50197" lon="6.81544">
        <ele>515.4</ele>
        <time>2012-05-25T09:59:03Z</time>
      </trkpt>
      <trkpt lat="43.50196" lon="6.8155">
        <ele>515.88</ele>
        <time>2012-05-25T09:59:14Z</time>
      </trkpt>
      <trkpt lat="43.50192" lon="6.81548">
        <ele>516.37</ele>
        <time>2012-05-25T09:59:25Z</time>
      </trkpt>
      <trkpt lat="43.50193" lon="6.81548">
        <ele>516.37</ele>
        <time>2012-05-25T09:59:44Z</time>
      </trkpt>
      <trkpt lat="43.50194" lon="6.81547">
        <ele>515.88</ele>
        <time>2012-05-25T10:00:22Z</time>
      </trkpt>
      <trkpt lat="43.50193" lon="6.81546">
        <ele>515.88</ele>
        <time>2012-05-25T10:01:28Z</time>
      </trkpt>
      <trkpt lat="43.50193" lon="6.81545">
        <ele>515.4</ele>
        <time>2012-05-25T10:02:35Z</time>
      </trkpt>
      <trkpt lat="43.50193" lon="6.81545">
        <ele>516.37</ele>
        <time>2012-05-25T10:03:06Z</time>
      </trkpt>
      <trkpt lat="43.50196" lon="6.81549">
        <ele>516.37</ele>
        <time>2012-05-25T10:04:17Z</time>
      </trkpt>
      <trkpt lat="43.50197" lon="6.8156">
        <ele>516.85</ele>
        <time>2012-05-25T10:04:32Z</time>
      </trkpt>
      <trkpt lat="43.50203" lon="6.8159">
        <ele>518.29</ele>
        <time>2012-05-25T10:04:48Z</time>
      </trkpt>
      <trkpt lat="43.50214" lon="6.81625">
        <ele>520.21</ele>
        <time>2012-05-25T10:05:08Z</time>
      </trkpt>
      <trkpt lat="43.5021" lon="6.81663">
        <ele>522.61</ele>
        <time>2012-05-25T10:05:26Z</time>
      </trkpt>
      <trkpt lat="43.5019" lon="6.81702">
        <ele>525.02</ele>
        <time>2012-05-25T10:05:45Z</time>
      </trkpt>
      <trkpt lat="43.5016" lon="6.81732">
        <ele>527.9</ele>
        <time>2012-05-25T10:06:06Z</time>
      </trkpt>
      <trkpt lat="43.50129" lon="6.81763">
        <ele>531.27</ele>
        <time>2012-05-25T10:06:29Z</time>
      </trkpt>
      <trkpt lat="43.50093" lon="6.81791">
        <ele>534.15</ele>
        <time>2012-05-25T10:06:54Z</time>
      </trkpt>
      <trkpt lat="43.50067" lon="6.8181">
        <ele>536.55</ele>
        <time>2012-05-25T10:07:13Z</time>
      </trkpt>
      <trkpt lat="43.50069" lon="6.81816">
        <ele>537.03</ele>
        <time>2012-05-25T10:07:17Z</time>
      </trkpt>
      <trkpt lat="43.50097" lon="6.818">
        <ele>539.44</ele>
        <time>2012-05-25T10:07:35Z</time>
      </trkpt>
      <trkpt lat="43.50141" lon="6.81778">
        <ele>541.84</ele>
        <time>2012-05-25T10:08:02Z</time>
      </trkpt>
      <trkpt lat="43.50179" lon="6.81762">
        <ele>544.72</ele>
        <time>2012-05-25T10:08:25Z</time>
      </trkpt>
      <trkpt lat="43.50214" lon="6.81755">
        <ele>548.09</ele>
        <time>2012-05-25T10:08:46Z</time>
      </trkpt>
      <trkpt lat="43.50241" lon="6.81748">
        <ele>550.01</ele>
        <time>2012-05-25T10:09:04Z</time>
      </trkpt>
      <trkpt lat="43.50253" lon="6.81776">
        <ele>550.97</ele>
        <time>2012-05-25T10:09:19Z</time>
      </trkpt>
      <trkpt lat="43.50252" lon="6.81809">
        <ele>553.38</ele>
        <time>2012-05-25T10:09:34Z</time>
      </trkpt>
      <trkpt lat="43.50254" lon="6.81862">
        <ele>556.26</ele>
        <time>2012-05-25T10:09:56Z</time>
      </trkpt>
      <trkpt lat="43.50254" lon="6.81908">
        <ele>559.14</ele>
        <time>2012-05-25T10:10:16Z</time>
      </trkpt>
      <trkpt lat="43.50255" lon="6.81945">
        <ele>562.03</ele>
        <time>2012-05-25T10:10:34Z</time>
      </trkpt>
      <trkpt lat="43.50253" lon="6.81997">
        <ele>563.47</ele>
        <time>2012-05-25T10:10:54Z</time>
      </trkpt>
      <trkpt lat="43.5026" lon="6.82037">
        <ele>565.87</ele>
        <time>2012-05-25T10:11:12Z</time>
      </trkpt>
      <trkpt lat="43.50268" lon="6.82065">
        <ele>569.24</ele>
        <time>2012-05-25T10:11:27Z</time>
      </trkpt>
      <trkpt lat="43.50275" lon="6.82078">
        <ele>571.64</ele>
        <time>2012-05-25T10:11:35Z</time>
      </trkpt>
      <trkpt lat="43.50271" lon="6.82084">
        <ele>573.56</ele>
        <time>2012-05-25T10:11:44Z</time>
      </trkpt>
      <trkpt lat="43.50249" lon="6.82071">
        <ele>576.93</ele>
        <time>2012-05-25T10:12:01Z</time>
      </trkpt>
      <trkpt lat="43.50237" lon="6.82054">
        <ele>580.29</ele>
        <time>2012-05-25T10:12:13Z</time>
      </trkpt>
      <trkpt lat="43.50233" lon="6.82045">
        <ele>581.73</ele>
        <time>2012-05-25T10:12:29Z</time>
      </trkpt>
      <trkpt lat="43.50229" lon="6.82051">
        <ele>582.22</ele>
        <time>2012-05-25T10:12:46Z</time>
      </trkpt>
      <trkpt lat="43.5023" lon="6.82051">
        <ele>582.22</ele>
        <time>2012-05-25T10:12:59Z</time>
      </trkpt>
      <trkpt lat="43.50229" lon="6.82051">
        <ele>582.22</ele>
        <time>2012-05-25T10:13:32Z</time>
      </trkpt>
      <trkpt lat="43.50232" lon="6.82054">
        <ele>582.22</ele>
        <time>2012-05-25T10:14:07Z</time>
      </trkpt>
      <trkpt lat="43.50232" lon="6.82051">
        <ele>582.22</ele>
        <time>2012-05-25T10:14:46Z</time>
      </trkpt>
      <trkpt lat="43.50232" lon="6.82053">
        <ele>582.7</ele>
        <time>2012-05-25T10:15:26Z</time>
      </trkpt>
      <trkpt lat="43.50233" lon="6.82063">
        <ele>582.7</ele>
        <time>2012-05-25T10:15:38Z</time>
      </trkpt>
      <trkpt lat="43.50238" lon="6.82077">
        <ele>585.1</ele>
        <time>2012-05-25T10:15:59Z</time>
      </trkpt>
      <trkpt lat="43.50242" lon="6.82092">
        <ele>586.54</ele>
        <time>2012-05-25T10:16:19Z</time>
      </trkpt>
      <trkpt lat="43.50245" lon="6.82106">
        <ele>587.5</ele>
        <time>2012-05-25T10:16:29Z</time>
      </trkpt>
      <trkpt lat="43.50245" lon="6.82108">
        <ele>587.5</ele>
        <time>2012-05-25T10:16:31Z</time>
      </trkpt>
      <trkpt lat="43.50245" lon="6.82112">
        <ele>587.5</ele>
        <time>2012-05-25T10:16:34Z</time>
      </trkpt>
      <trkpt lat="43.50248" lon="6.82114">
        <ele>587.98</ele>
        <time>2012-05-25T10:16:37Z</time>
      </trkpt>
      <trkpt lat="43.50249" lon="6.82117">
        <ele>588.46</ele>
        <time>2012-05-25T10:16:40Z</time>
      </trkpt>
      <trkpt lat="43.50249" lon="6.82118">
        <ele>588.95</ele>
        <time>2012-05-25T10:16:42Z</time>
      </trkpt>
      <trkpt lat="43.50249" lon="6.82119">
        <ele>589.43</ele>
        <time>2012-05-25T10:16:44Z</time>
      </trkpt>
      <trkpt lat="43.50255" lon="6.82126">
        <ele>590.39</ele>
        <time>2012-05-25T10:16:50Z</time>
      </trkpt>
      <trkpt lat="43.50258" lon="6.82125">
        <ele>592.79</ele>
        <time>2012-05-25T10:17:03Z</time>
      </trkpt>
      <trkpt lat="43.50241" lon="6.82119">
        <ele>594.71</ele>
        <time>2012-05-25T10:17:17Z</time>
      </trkpt>
      <trkpt lat="43.50246" lon="6.82137">
        <ele>598.08</ele>
        <time>2012-05-25T10:17:32Z</time>
      </trkpt>
      <trkpt lat="43.50244" lon="6.82138">
        <ele>599.52</ele>
        <time>2012-05-25T10:17:46Z</time>
      </trkpt>
      <trkpt lat="43.50232" lon="6.82143">
        <ele>602.4</ele>
        <time>2012-05-25T10:18:05Z</time>
      </trkpt>
      <trkpt lat="43.50229" lon="6.82156">
        <ele>604.33</ele>
        <time>2012-05-25T10:18:19Z</time>
      </trkpt>
      <trkpt lat="43.50225" lon="6.8217">
        <ele>607.21</ele>
        <time>2012-05-25T10:18:37Z</time>
      </trkpt>
      <trkpt lat="43.50218" lon="6.82172">
        <ele>610.09</ele>
        <time>2012-05-25T10:18:54Z</time>
      </trkpt>
      <trkpt lat="43.50216" lon="6.82168">
        <ele>611.54</ele>
        <time>2012-05-25T10:19:09Z</time>
      </trkpt>
      <trkpt lat="43.50217" lon="6.82179">
        <ele>612.02</ele>
        <time>2012-05-25T10:19:35Z</time>
      </trkpt>
      <trkpt lat="43.50222" lon="6.82189">
        <ele>612.5</ele>
        <time>2012-05-25T10:19:57Z</time>
      </trkpt>
      <trkpt lat="43.50221" lon="6.82181">
        <ele>612.5</ele>
        <time>2012-05-25T10:20:16Z</time>
      </trkpt>
      <trkpt lat="43.50221" lon="6.82181">
        <ele>612.5</ele>
        <time>2012-05-25T10:20:35Z</time>
      </trkpt>
      <trkpt lat="43.50221" lon="6.82182">
        <ele>612.98</ele>
        <time>2012-05-25T10:20:51Z</time>
      </trkpt>
      <trkpt lat="43.50222" lon="6.82181">
        <ele>612.5</ele>
        <time>2012-05-25T10:21:14Z</time>
      </trkpt>
      <trkpt lat="43.50223" lon="6.82179">
        <ele>612.5</ele>
        <time>2012-05-25T10:21:45Z</time>
      </trkpt>
      <trkpt lat="43.50219" lon="6.82176">
        <ele>612.98</ele>
        <time>2012-05-25T10:22:20Z</time>
      </trkpt>
      <trkpt lat="43.50222" lon="6.82179">
        <ele>612.98</ele>
        <time>2012-05-25T10:22:39Z</time>
      </trkpt>
      <trkpt lat="43.50224" lon="6.82184">
        <ele>612.98</ele>
        <time>2012-05-25T10:22:59Z</time>
      </trkpt>
      <trkpt lat="43.50221" lon="6.82182">
        <ele>612.5</ele>
        <time>2012-05-25T10:23:11Z</time>
      </trkpt>
      <trkpt lat="43.5022" lon="6.82181">
        <ele>613.46</ele>
        <time>2012-05-25T10:23:28Z</time>
      </trkpt>
      <trkpt lat="43.5022" lon="6.82182">
        <ele>613.46</ele>
        <time>2012-05-25T10:23:58Z</time>
      </trkpt>
      <trkpt lat="43.50219" lon="6.82181">
        <ele>613.46</ele>
        <time>2012-05-25T10:24:24Z</time>
      </trkpt>
      <trkpt lat="43.50221" lon="6.82183">
        <ele>613.46</ele>
        <time>2012-05-25T10:24:34Z</time>
      </trkpt>
      <trkpt lat="43.50222" lon="6.82187">
        <ele>612.98</ele>
        <time>2012-05-25T10:24:52Z</time>
      </trkpt>
      <trkpt lat="43.50221" lon="6.82188">
        <ele>613.94</ele>
        <time>2012-05-25T10:25:13Z</time>
      </trkpt>
      <trkpt lat="43.50222" lon="6.82188">
        <ele>612.98</ele>
        <time>2012-05-25T10:25:41Z</time>
      </trkpt>
      <trkpt lat="43.50215" lon="6.82181">
        <ele>613.46</ele>
        <time>2012-05-25T10:26:02Z</time>
      </trkpt>
      <trkpt lat="43.50215" lon="6.82179">
        <ele>612.98</ele>
        <time>2012-05-25T10:26:49Z</time>
      </trkpt>
      <trkpt lat="43.50213" lon="6.82174">
        <ele>613.94</ele>
        <time>2012-05-25T10:27:04Z</time>
      </trkpt>
      <trkpt lat="43.50214" lon="6.82175">
        <ele>612.98</ele>
        <time>2012-05-25T10:27:37Z</time>
      </trkpt>
      <trkpt lat="43.50219" lon="6.82181">
        <ele>612.98</ele>
        <time>2012-05-25T10:27:51Z</time>
      </trkpt>
      <trkpt lat="43.5022" lon="6.8218">
        <ele>613.46</ele>
        <time>2012-05-25T10:28:11Z</time>
      </trkpt>
      <trkpt lat="43.50222" lon="6.82182">
        <ele>613.46</ele>
        <time>2012-05-25T10:28:44Z</time>
      </trkpt>
      <trkpt lat="43.50222" lon="6.82182">
        <ele>612.98</ele>
        <time>2012-05-25T10:29:00Z</time>
      </trkpt>
      <trkpt lat="43.50221" lon="6.82182">
        <ele>613.46</ele>
        <time>2012-05-25T10:29:21Z</time>
      </trkpt>
      <trkpt lat="43.50219" lon="6.82181">
        <ele>613.46</ele>
        <time>2012-05-25T10:29:40Z</time>
      </trkpt>
      <trkpt lat="43.50217" lon="6.82179">
        <ele>612.98</ele>
        <time>2012-05-25T10:29:59Z</time>
      </trkpt>
      <trkpt lat="43.50215" lon="6.82177">
        <ele>612.5</ele>
        <time>2012-05-25T10:30:14Z</time>
      </trkpt>
      <trkpt lat="43.50215" lon="6.82175">
        <ele>612.02</ele>
        <time>2012-05-25T10:30:31Z</time>
      </trkpt>
      <trkpt lat="43.50215" lon="6.82173">
        <ele>612.02</ele>
        <time>2012-05-25T10:30:44Z</time>
      </trkpt>
      <trkpt lat="43.50219" lon="6.82172">
        <ele>612.02</ele>
        <time>2012-05-25T10:31:00Z</time>
      </trkpt>
      <trkpt lat="43.50224" lon="6.82168">
        <ele>609.61</ele>
        <time>2012-05-25T10:31:15Z</time>
      </trkpt>
      <trkpt lat="43.50228" lon="6.82165">
        <ele>608.17</ele>
        <time>2012-05-25T10:31:26Z</time>
      </trkpt>
      <trkpt lat="43.50228" lon="6.82163">
        <ele>607.69</ele>
        <time>2012-05-25T10:31:29Z</time>
      </trkpt>
      <trkpt lat="43.50228" lon="6.82159">
        <ele>606.73</ele>
        <time>2012-05-25T10:31:40Z</time>
      </trkpt>
      <trkpt lat="43.5023" lon="6.82153">
        <ele>606.25</ele>
        <time>2012-05-25T10:31:48Z</time>
      </trkpt>
      <trkpt lat="43.50227" lon="6.82143">
        <ele>604.81</ele>
        <time>2012-05-25T10:32:01Z</time>
      </trkpt>
      <trkpt lat="43.50229" lon="6.82144">
        <ele>604.33</ele>
        <time>2012-05-25T10:32:18Z</time>
      </trkpt>
      <trkpt lat="43.50229" lon="6.82143">
        <ele>604.81</ele>
        <time>2012-05-25T10:33:27Z</time>
      </trkpt>
      <trkpt lat="43.50229" lon="6.82142">
        <ele>604.33</ele>
        <time>2012-05-25T10:33:42Z</time>
      </trkpt>
      <trkpt lat="43.50229" lon="6.82144">
        <ele>604.33</ele>
        <time>2012-05-25T10:34:41Z</time>
      </trkpt>
      <trkpt lat="43.50229" lon="6.82145">
        <ele>604.81</ele>
        <time>2012-05-25T10:39:48Z</time>
      </trkpt>
      <trkpt lat="43.50228" lon="6.82144">
        <ele>605.29</ele>
        <time>2012-05-25T10:40:29Z</time>
      </trkpt>
      <trkpt lat="43.50229" lon="6.82144">
        <ele>604.81</ele>
        <time>2012-05-25T10:40:53Z</time>
      </trkpt>
      <trkpt lat="43.50229" lon="6.82143">
        <ele>604.81</ele>
        <time>2012-05-25T10:41:13Z</time>
      </trkpt>
      <trkpt lat="43.50229" lon="6.82142">
        <ele>605.29</ele>
        <time>2012-05-25T10:41:28Z</time>
      </trkpt>
      <trkpt lat="43.50224" lon="6.82138">
        <ele>605.29</ele>
        <time>2012-05-25T10:41:48Z</time>
      </trkpt>
      <trkpt lat="43.50222" lon="6.82138">
        <ele>605.77</ele>
        <time>2012-05-25T10:42:09Z</time>
      </trkpt>
      <trkpt lat="43.50223" lon="6.82139">
        <ele>605.77</ele>
        <time>2012-05-25T10:43:10Z</time>
      </trkpt>
      <trkpt lat="43.50227" lon="6.82145">
        <ele>604.81</ele>
        <time>2012-05-25T10:43:22Z</time>
      </trkpt>
      <trkpt lat="43.50228" lon="6.82145">
        <ele>605.77</ele>
        <time>2012-05-25T10:43:57Z</time>
      </trkpt>
      <trkpt lat="43.50228" lon="6.82144">
        <ele>605.29</ele>
        <time>2012-05-25T10:46:39Z</time>
      </trkpt>
      <trkpt lat="43.5023" lon="6.82144">
        <ele>605.29</ele>
        <time>2012-05-25T10:47:49Z</time>
      </trkpt>
      <trkpt lat="43.50229" lon="6.82141">
        <ele>605.77</ele>
        <time>2012-05-25T10:50:04Z</time>
      </trkpt>
      <trkpt lat="43.50222" lon="6.82141">
        <ele>606.73</ele>
        <time>2012-05-25T10:50:18Z</time>
      </trkpt>
      <trkpt lat="43.50226" lon="6.82139">
        <ele>606.25</ele>
        <time>2012-05-25T10:50:45Z</time>
      </trkpt>
      <trkpt lat="43.50231" lon="6.82142">
        <ele>606.25</ele>
        <time>2012-05-25T10:51:01Z</time>
      </trkpt>
      <trkpt lat="43.50231" lon="6.82143">
        <ele>606.25</ele>
        <time>2012-05-25T10:56:12Z</time>
      </trkpt>
      <trkpt lat="43.50231" lon="6.82143">
        <ele>606.25</ele>
        <time>2012-05-25T10:56:37Z</time>
      </trkpt>
      <trkpt lat="43.50231" lon="6.82144">
        <ele>605.77</ele>
        <time>2012-05-25T10:56:50Z</time>
      </trkpt>
      <trkpt lat="43.5023" lon="6.82144">
        <ele>605.29</ele>
        <time>2012-05-25T10:57:59Z</time>
      </trkpt>
      <trkpt lat="43.50229" lon="6.82144">
        <ele>606.25</ele>
        <time>2012-05-25T11:00:33Z</time>
      </trkpt>
      <trkpt lat="43.50228" lon="6.82146">
        <ele>606.73</ele>
        <time>2012-05-25T11:00:54Z</time>
      </trkpt>
      <trkpt lat="43.5023" lon="6.82141">
        <ele>606.25</ele>
        <time>2012-05-25T11:01:06Z</time>
      </trkpt>
      <trkpt lat="43.50233" lon="6.82138">
        <ele>605.77</ele>
        <time>2012-05-25T11:01:17Z</time>
      </trkpt>
      <trkpt lat="43.50241" lon="6.8214">
        <ele>604.33</ele>
        <time>2012-05-25T11:01:32Z</time>
      </trkpt>
      <trkpt lat="43.50242" lon="6.82139">
        <ele>603.85</ele>
        <time>2012-05-25T11:01:35Z</time>
      </trkpt>
      <trkpt lat="43.50248" lon="6.82136">
        <ele>601.44</ele>
        <time>2012-05-25T11:01:50Z</time>
      </trkpt>
      <trkpt lat="43.50246" lon="6.82128">
        <ele>599.52</ele>
        <time>2012-05-25T11:02:02Z</time>
      </trkpt>
      <trkpt lat="43.50247" lon="6.82122">
        <ele>598.08</ele>
        <time>2012-05-25T11:02:13Z</time>
      </trkpt>
      <trkpt lat="43.50253" lon="6.82122">
        <ele>596.64</ele>
        <time>2012-05-25T11:02:26Z</time>
      </trkpt>
      <trkpt lat="43.50258" lon="6.82121">
        <ele>594.23</ele>
        <time>2012-05-25T11:02:40Z</time>
      </trkpt>
      <trkpt lat="43.50252" lon="6.82113">
        <ele>592.79</ele>
        <time>2012-05-25T11:02:53Z</time>
      </trkpt>
      <trkpt lat="43.50249" lon="6.82109">
        <ele>591.83</ele>
        <time>2012-05-25T11:03:00Z</time>
      </trkpt>
      <trkpt lat="43.50245" lon="6.82106">
        <ele>590.39</ele>
        <time>2012-05-25T11:03:08Z</time>
      </trkpt>
      <trkpt lat="43.50238" lon="6.8209">
        <ele>589.43</ele>
        <time>2012-05-25T11:03:23Z</time>
      </trkpt>
      <trkpt lat="43.50232" lon="6.82078">
        <ele>588.46</ele>
        <time>2012-05-25T11:03:37Z</time>
      </trkpt>
      <trkpt lat="43.5023" lon="6.82058">
        <ele>586.54</ele>
        <time>2012-05-25T11:03:53Z</time>
      </trkpt>
      <trkpt lat="43.50228" lon="6.82049">
        <ele>586.06</ele>
        <time>2012-05-25T11:04:05Z</time>
      </trkpt>
      <trkpt lat="43.50229" lon="6.82052">
        <ele>585.58</ele>
        <time>2012-05-25T11:04:24Z</time>
      </trkpt>
      <trkpt lat="43.50228" lon="6.82052">
        <ele>585.1</ele>
        <time>2012-05-25T11:05:56Z</time>
      </trkpt>
      <trkpt lat="43.50228" lon="6.82052">
        <ele>586.06</ele>
        <time>2012-05-25T11:06:22Z</time>
      </trkpt>
      <trkpt lat="43.5023" lon="6.82051">
        <ele>586.54</ele>
        <time>2012-05-25T11:06:39Z</time>
      </trkpt>
      <trkpt lat="43.50229" lon="6.8205">
        <ele>586.06</ele>
        <time>2012-05-25T11:07:11Z</time>
      </trkpt>
      <trkpt lat="43.50233" lon="6.82043">
        <ele>585.1</ele>
        <time>2012-05-25T11:07:28Z</time>
      </trkpt>
      <trkpt lat="43.50233" lon="6.82043">
        <ele>585.1</ele>
        <time>2012-05-25T11:07:34Z</time>
      </trkpt>
      <trkpt lat="43.50238" lon="6.82053">
        <ele>584.62</ele>
        <time>2012-05-25T11:07:40Z</time>
      </trkpt>
      <trkpt lat="43.50255" lon="6.82072">
        <ele>581.25</ele>
        <time>2012-05-25T11:07:47Z</time>
      </trkpt>
      <trkpt lat="43.50258" lon="6.82074">
        <ele>581.25</ele>
        <time>2012-05-25T11:07:48Z</time>
      </trkpt>
      <trkpt lat="43.5028" lon="6.82088">
        <ele>577.89</ele>
        <time>2012-05-25T11:07:56Z</time>
      </trkpt>
      <trkpt lat="43.50281" lon="6.82086">
        <ele>576.93</ele>
        <time>2012-05-25T11:08:20Z</time>
      </trkpt>
      <trkpt lat="43.5028" lon="6.82086">
        <ele>576.93</ele>
        <time>2012-05-25T11:08:22Z</time>
      </trkpt>
      <trkpt lat="43.5026" lon="6.82043">
        <ele>574.04</ele>
        <time>2012-05-25T11:08:32Z</time>
      </trkpt>
      <trkpt lat="43.50254" lon="6.82011">
        <ele>570.68</ele>
        <time>2012-05-25T11:08:35Z</time>
      </trkpt>
      <trkpt lat="43.50255" lon="6.81957">
        <ele>567.8</ele>
        <time>2012-05-25T11:08:40Z</time>
      </trkpt>
      <trkpt lat="43.50255" lon="6.81931">
        <ele>567.32</ele>
        <time>2012-05-25T11:08:43Z</time>
      </trkpt>
      <trkpt lat="43.50255" lon="6.819">
        <ele>565.87</ele>
        <time>2012-05-25T11:08:47Z</time>
      </trkpt>
      <trkpt lat="43.50254" lon="6.81843">
        <ele>561.55</ele>
        <time>2012-05-25T11:08:53Z</time>
      </trkpt>
      <trkpt lat="43.50253" lon="6.81833">
        <ele>561.55</ele>
        <time>2012-05-25T11:08:54Z</time>
      </trkpt>
      <trkpt lat="43.50253" lon="6.81786">
        <ele>558.66</ele>
        <time>2012-05-25T11:08:59Z</time>
      </trkpt>
      <trkpt lat="43.50255" lon="6.81752">
        <ele>556.26</ele>
        <time>2012-05-25T11:09:05Z</time>
      </trkpt>
      <trkpt lat="43.50248" lon="6.81744">
        <ele>555.3</ele>
        <time>2012-05-25T11:09:11Z</time>
      </trkpt>
      <trkpt lat="43.50196" lon="6.81762">
        <ele>552.9</ele>
        <time>2012-05-25T11:09:24Z</time>
      </trkpt>
      <trkpt lat="43.50145" lon="6.81781">
        <ele>549.05</ele>
        <time>2012-05-25T11:09:31Z</time>
      </trkpt>
      <trkpt lat="43.50138" lon="6.81785">
        <ele>549.05</ele>
        <time>2012-05-25T11:09:32Z</time>
      </trkpt>
      <trkpt lat="43.50091" lon="6.81808">
        <ele>545.69</ele>
        <time>2012-05-25T11:09:38Z</time>
      </trkpt>
      <trkpt lat="43.50079" lon="6.81817">
        <ele>544.72</ele>
        <time>2012-05-25T11:09:40Z</time>
      </trkpt>
      <trkpt lat="43.50071" lon="6.81803">
        <ele>541.84</ele>
        <time>2012-05-25T11:09:47Z</time>
      </trkpt>
      <trkpt lat="43.50075" lon="6.818">
        <ele>541.84</ele>
        <time>2012-05-25T11:09:48Z</time>
      </trkpt>
      <trkpt lat="43.50131" lon="6.8176">
        <ele>538.48</ele>
        <time>2012-05-25T11:09:58Z</time>
      </trkpt>
      <trkpt lat="43.50175" lon="6.81717">
        <ele>535.11</ele>
        <time>2012-05-25T11:10:04Z</time>
      </trkpt>
      <trkpt lat="43.50191" lon="6.81701">
        <ele>533.67</ele>
        <time>2012-05-25T11:10:06Z</time>
      </trkpt>
      <trkpt lat="43.50214" lon="6.81647">
        <ele>529.34</ele>
        <time>2012-05-25T11:10:11Z</time>
      </trkpt>
      <trkpt lat="43.50215" lon="6.81636">
        <ele>529.34</ele>
        <time>2012-05-25T11:10:12Z</time>
      </trkpt>
      <trkpt lat="43.50208" lon="6.81594">
        <ele>526.46</ele>
        <time>2012-05-25T11:10:16Z</time>
      </trkpt>
      <trkpt lat="43.502" lon="6.81573">
        <ele>525.5</ele>
        <time>2012-05-25T11:10:18Z</time>
      </trkpt>
      <trkpt lat="43.50193" lon="6.81512">
        <ele>522.61</ele>
        <time>2012-05-25T11:10:23Z</time>
      </trkpt>
      <trkpt lat="43.5019" lon="6.81461">
        <ele>519.73</ele>
        <time>2012-05-25T11:10:27Z</time>
      </trkpt>
      <trkpt lat="43.5019" lon="6.81406">
        <ele>515.4</ele>
        <time>2012-05-25T11:10:32Z</time>
      </trkpt>
      <trkpt lat="43.50203" lon="6.81371">
        <ele>513.48</ele>
        <time>2012-05-25T11:10:36Z</time>
      </trkpt>
      <trkpt lat="43.50214" lon="6.81274">
        <ele>508.67</ele>
        <time>2012-05-25T11:10:45Z</time>
      </trkpt>
      <trkpt lat="43.50212" lon="6.8121">
        <ele>505.31</ele>
        <time>2012-05-25T11:10:50Z</time>
      </trkpt>
      <trkpt lat="43.50215" lon="6.8117">
        <ele>503.39</ele>
        <time>2012-05-25T11:10:53Z</time>
      </trkpt>
      <trkpt lat="43.50238" lon="6.81128">
        <ele>500.02</ele>
        <time>2012-05-25T11:10:57Z</time>
      </trkpt>
      <trkpt lat="43.50247" lon="6.81122">
        <ele>499.06</ele>
        <time>2012-05-25T11:10:58Z</time>
      </trkpt>
      <trkpt lat="43.50284" lon="6.81098">
        <ele>496.66</ele>
        <time>2012-05-25T11:11:02Z</time>
      </trkpt>
      <trkpt lat="43.50307" lon="6.81077">
        <ele>494.26</ele>
        <time>2012-05-25T11:11:05Z</time>
      </trkpt>
      <trkpt lat="43.5035" lon="6.81062">
        <ele>489.93</ele>
        <time>2012-05-25T11:11:11Z</time>
      </trkpt>
      <trkpt lat="43.50357" lon="6.81064">
        <ele>489.93</ele>
        <time>2012-05-25T11:11:12Z</time>
      </trkpt>
      <trkpt lat="43.50391" lon="6.81111">
        <ele>486.56</ele>
        <time>2012-05-25T11:11:18Z</time>
      </trkpt>
      <trkpt lat="43.50401" lon="6.81147">
        <ele>484.16</ele>
        <time>2012-05-25T11:11:21Z</time>
      </trkpt>
      <trkpt lat="43.50407" lon="6.81198">
        <ele>481.76</ele>
        <time>2012-05-25T11:11:25Z</time>
      </trkpt>
      <trkpt lat="43.50421" lon="6.81261">
        <ele>477.91</ele>
        <time>2012-05-25T11:11:30Z</time>
      </trkpt>
      <trkpt lat="43.50424" lon="6.81273">
        <ele>476.95</ele>
        <time>2012-05-25T11:11:31Z</time>
      </trkpt>
      <trkpt lat="43.50457" lon="6.81321">
        <ele>473.59</ele>
        <time>2012-05-25T11:11:37Z</time>
      </trkpt>
      <trkpt lat="43.50472" lon="6.81313">
        <ele>471.66</ele>
        <time>2012-05-25T11:11:44Z</time>
      </trkpt>
      <trkpt lat="43.5047" lon="6.81309">
        <ele>471.18</ele>
        <time>2012-05-25T11:11:45Z</time>
      </trkpt>
      <trkpt lat="43.50459" lon="6.81302">
        <ele>469.74</ele>
        <time>2012-05-25T11:11:47Z</time>
      </trkpt>
      <trkpt lat="43.50438" lon="6.81249">
        <ele>467.34</ele>
        <time>2012-05-25T11:11:53Z</time>
      </trkpt>
      <trkpt lat="43.50441" lon="6.81181">
        <ele>462.53</ele>
        <time>2012-05-25T11:11:58Z</time>
      </trkpt>
      <trkpt lat="43.50442" lon="6.81167">
        <ele>461.57</ele>
        <time>2012-05-25T11:11:59Z</time>
      </trkpt>
      <trkpt lat="43.50441" lon="6.81137">
        <ele>460.61</ele>
        <time>2012-05-25T11:12:01Z</time>
      </trkpt>
      <trkpt lat="43.50441" lon="6.81123">
        <ele>459.65</ele>
        <time>2012-05-25T11:12:02Z</time>
      </trkpt>
      <trkpt lat="43.50437" lon="6.81082">
        <ele>456.28</ele>
        <time>2012-05-25T11:12:05Z</time>
      </trkpt>
      <trkpt lat="43.50421" lon="6.81033">
        <ele>451.96</ele>
        <time>2012-05-25T11:12:09Z</time>
      </trkpt>
      <trkpt lat="43.50412" lon="6.81014">
        <ele>451</ele>
        <time>2012-05-25T11:12:11Z</time>
      </trkpt>
      <trkpt lat="43.50383" lon="6.80985">
        <ele>447.15</ele>
        <time>2012-05-25T11:12:15Z</time>
      </trkpt>
      <trkpt lat="43.50346" lon="6.80961">
        <ele>443.31</ele>
        <time>2012-05-25T11:12:19Z</time>
      </trkpt>
      <trkpt lat="43.50326" lon="6.80955">
        <ele>442.34</ele>
        <time>2012-05-25T11:12:21Z</time>
      </trkpt>
      <trkpt lat="43.50294" lon="6.80955">
        <ele>438.98</ele>
        <time>2012-05-25T11:12:24Z</time>
      </trkpt>
      <trkpt lat="43.50248" lon="6.80967">
        <ele>435.13</ele>
        <time>2012-05-25T11:12:28Z</time>
      </trkpt>
      <trkpt lat="43.50224" lon="6.80975">
        <ele>433.69</ele>
        <time>2012-05-25T11:12:30Z</time>
      </trkpt>
      <trkpt lat="43.50189" lon="6.80985">
        <ele>430.33</ele>
        <time>2012-05-25T11:12:33Z</time>
      </trkpt>
      <trkpt lat="43.50151" lon="6.80995">
        <ele>426.48</ele>
        <time>2012-05-25T11:12:36Z</time>
      </trkpt>
      <trkpt lat="43.50115" lon="6.81011">
        <ele>424.08</ele>
        <time>2012-05-25T11:12:39Z</time>
      </trkpt>
      <trkpt lat="43.50082" lon="6.81025">
        <ele>420.23</ele>
        <time>2012-05-25T11:12:42Z</time>
      </trkpt>
      <trkpt lat="43.50061" lon="6.81033">
        <ele>417.83</ele>
        <time>2012-05-25T11:12:44Z</time>
      </trkpt>
      <trkpt lat="43.50022" lon="6.81039">
        <ele>413.02</ele>
        <time>2012-05-25T11:12:48Z</time>
      </trkpt>
      <trkpt lat="43.50012" lon="6.81036">
        <ele>413.02</ele>
        <time>2012-05-25T11:12:49Z</time>
      </trkpt>
      <trkpt lat="43.50003" lon="6.81033">
        <ele>412.06</ele>
        <time>2012-05-25T11:12:50Z</time>
      </trkpt>
      <trkpt lat="43.49964" lon="6.81008">
        <ele>407.74</ele>
        <time>2012-05-25T11:12:55Z</time>
      </trkpt>
      <trkpt lat="43.4993" lon="6.8098">
        <ele>404.85</ele>
        <time>2012-05-25T11:12:59Z</time>
      </trkpt>
      <trkpt lat="43.49922" lon="6.80973">
        <ele>403.89</ele>
        <time>2012-05-25T11:13:00Z</time>
      </trkpt>
      <trkpt lat="43.49877" lon="6.80951">
        <ele>399.57</ele>
        <time>2012-05-25T11:13:05Z</time>
      </trkpt>
      <trkpt lat="43.49847" lon="6.80939">
        <ele>397.64</ele>
        <time>2012-05-25T11:13:08Z</time>
      </trkpt>
      <trkpt lat="43.49805" lon="6.80918">
        <ele>394.28</ele>
        <time>2012-05-25T11:13:12Z</time>
      </trkpt>
      <trkpt lat="43.49767" lon="6.80896">
        <ele>390.43</ele>
        <time>2012-05-25T11:13:16Z</time>
      </trkpt>
      <trkpt lat="43.49754" lon="6.80884">
        <ele>389.47</ele>
        <time>2012-05-25T11:13:18Z</time>
      </trkpt>
      <trkpt lat="43.49746" lon="6.80866">
        <ele>388.03</ele>
        <time>2012-05-25T11:13:20Z</time>
      </trkpt>
      <trkpt lat="43.4974" lon="6.80834">
        <ele>386.59</ele>
        <time>2012-05-25T11:13:23Z</time>
      </trkpt>
      <trkpt lat="43.49736" lon="6.80747">
        <ele>387.07</ele>
        <time>2012-05-25T11:13:35Z</time>
      </trkpt>
      <trkpt lat="43.49716" lon="6.80668">
        <ele>389.47</ele>
        <time>2012-05-25T11:13:52Z</time>
      </trkpt>
      <trkpt lat="43.49677" lon="6.80623">
        <ele>390.91</ele>
        <time>2012-05-25T11:14:09Z</time>
      </trkpt>
      <trkpt lat="43.49677" lon="6.80619">
        <ele>390.91</ele>
        <time>2012-05-25T11:14:10Z</time>
      </trkpt>
      <trkpt lat="43.49684" lon="6.80606">
        <ele>390.91</ele>
        <time>2012-05-25T11:14:14Z</time>
      </trkpt>
      <trkpt lat="43.49735" lon="6.80539">
        <ele>390.91</ele>
        <time>2012-05-25T11:14:33Z</time>
      </trkpt>
      <trkpt lat="43.49735" lon="6.80514">
        <ele>390.43</ele>
        <time>2012-05-25T11:14:37Z</time>
      </trkpt>
      <trkpt lat="43.49714" lon="6.80454">
        <ele>386.59</ele>
        <time>2012-05-25T11:14:44Z</time>
      </trkpt>
      <trkpt lat="43.49711" lon="6.80445">
        <ele>386.59</ele>
        <time>2012-05-25T11:14:45Z</time>
      </trkpt>
      <trkpt lat="43.4969" lon="6.80411">
        <ele>385.15</ele>
        <time>2012-05-25T11:14:49Z</time>
      </trkpt>
      <trkpt lat="43.49669" lon="6.80391">
        <ele>383.7</ele>
        <time>2012-05-25T11:14:52Z</time>
      </trkpt>
      <trkpt lat="43.49648" lon="6.80332">
        <ele>381.3</ele>
        <time>2012-05-25T11:14:58Z</time>
      </trkpt>
      <trkpt lat="43.49649" lon="6.80308">
        <ele>379.86</ele>
        <time>2012-05-25T11:15:00Z</time>
      </trkpt>
      <trkpt lat="43.49609" lon="6.80247">
        <ele>376.01</ele>
        <time>2012-05-25T11:15:07Z</time>
      </trkpt>
      <trkpt lat="43.49587" lon="6.80206">
        <ele>373.61</ele>
        <time>2012-05-25T11:15:13Z</time>
      </trkpt>
      <trkpt lat="43.4957" lon="6.80165">
        <ele>372.17</ele>
        <time>2012-05-25T11:15:25Z</time>
      </trkpt>
      <trkpt lat="43.4956" lon="6.80169">
        <ele>372.17</ele>
        <time>2012-05-25T11:15:37Z</time>
      </trkpt>
      <trkpt lat="43.4956" lon="6.80169">
        <ele>372.17</ele>
        <time>2012-05-25T11:16:09Z</time>
      </trkpt>
      <trkpt lat="43.49561" lon="6.8017">
        <ele>371.21</ele>
        <time>2012-05-25T11:18:04Z</time>
      </trkpt>
      <trkpt lat="43.49558" lon="6.8017">
        <ele>371.21</ele>
        <time>2012-05-25T11:18:07Z</time>
      </trkpt>
      <trkpt lat="43.49522" lon="6.80191">
        <ele>371.21</ele>
        <time>2012-05-25T11:18:19Z</time>
      </trkpt>
      <trkpt lat="43.49503" lon="6.80196">
        <ele>370.24</ele>
        <time>2012-05-25T11:18:23Z</time>
      </trkpt>
      <trkpt lat="43.49477" lon="6.80202">
        <ele>369.28</ele>
        <time>2012-05-25T11:18:28Z</time>
      </trkpt>
      <trkpt lat="43.4946" lon="6.80204">
        <ele>369.28</ele>
        <time>2012-05-25T11:18:31Z</time>
      </trkpt>
      <trkpt lat="43.4943" lon="6.80169">
        <ele>368.8</ele>
        <time>2012-05-25T11:18:43Z</time>
      </trkpt>
      <trkpt lat="43.49434" lon="6.80106">
        <ele>372.17</ele>
        <time>2012-05-25T11:18:58Z</time>
      </trkpt>
      <trkpt lat="43.49437" lon="6.80064">
        <ele>375.53</ele>
        <time>2012-05-25T11:19:08Z</time>
      </trkpt>
      <trkpt lat="43.49433" lon="6.80052">
        <ele>376.01</ele>
        <time>2012-05-25T11:19:23Z</time>
      </trkpt>
      <trkpt lat="43.49434" lon="6.80053">
        <ele>376.01</ele>
        <time>2012-05-25T11:19:26Z</time>
      </trkpt>
      <trkpt lat="43.49435" lon="6.8006">
        <ele>376.01</ele>
        <time>2012-05-25T11:19:30Z</time>
      </trkpt>
      <trkpt lat="43.49436" lon="6.80055">
        <ele>376.01</ele>
        <time>2012-05-25T11:19:36Z</time>
      </trkpt>
      <trkpt lat="43.49411" lon="6.80039">
        <ele>376.97</ele>
        <time>2012-05-25T11:19:50Z</time>
      </trkpt>
      <trkpt lat="43.49381" lon="6.80013">
        <ele>379.86</ele>
        <time>2012-05-25T11:20:08Z</time>
      </trkpt>
      <trkpt lat="43.49358" lon="6.79977">
        <ele>382.26</ele>
        <time>2012-05-25T11:20:26Z</time>
      </trkpt>
      <trkpt lat="43.49333" lon="6.79956">
        <ele>384.18</ele>
        <time>2012-05-25T11:20:43Z</time>
      </trkpt>
      <trkpt lat="43.4931" lon="6.79934">
        <ele>387.07</ele>
        <time>2012-05-25T11:21:01Z</time>
      </trkpt>
      <trkpt lat="43.49284" lon="6.79913">
        <ele>389.95</ele>
        <time>2012-05-25T11:21:20Z</time>
      </trkpt>
      <trkpt lat="43.49267" lon="6.79887">
        <ele>392.36</ele>
        <time>2012-05-25T11:21:37Z</time>
      </trkpt>
      <trkpt lat="43.4925" lon="6.79859">
        <ele>394.28</ele>
        <time>2012-05-25T11:21:54Z</time>
      </trkpt>
      <trkpt lat="43.49235" lon="6.79824">
        <ele>396.2</ele>
        <time>2012-05-25T11:22:13Z</time>
      </trkpt>
      <trkpt lat="43.4922" lon="6.79788">
        <ele>398.12</ele>
        <time>2012-05-25T11:22:32Z</time>
      </trkpt>
      <trkpt lat="43.49198" lon="6.79749">
        <ele>401.01</ele>
        <time>2012-05-25T11:22:55Z</time>
      </trkpt>
      <trkpt lat="43.49176" lon="6.79718">
        <ele>402.93</ele>
        <time>2012-05-25T11:23:14Z</time>
      </trkpt>
      <trkpt lat="43.49169" lon="6.79707">
        <ele>403.89</ele>
        <time>2012-05-25T11:23:21Z</time>
      </trkpt>
      <trkpt lat="43.49166" lon="6.79702">
        <ele>404.37</ele>
        <time>2012-05-25T11:23:25Z</time>
      </trkpt>
      <trkpt lat="43.49157" lon="6.79675">
        <ele>406.29</ele>
        <time>2012-05-25T11:23:47Z</time>
      </trkpt>
      <trkpt lat="43.49157" lon="6.79644">
        <ele>407.74</ele>
        <time>2012-05-25T11:24:08Z</time>
      </trkpt>
      <trkpt lat="43.49148" lon="6.79613">
        <ele>409.66</ele>
        <time>2012-05-25T11:24:31Z</time>
      </trkpt>
      <trkpt lat="43.49144" lon="6.7959">
        <ele>411.1</ele>
        <time>2012-05-25T11:24:48Z</time>
      </trkpt>
      <trkpt lat="43.49142" lon="6.79561">
        <ele>413.5</ele>
        <time>2012-05-25T11:25:09Z</time>
      </trkpt>
      <trkpt lat="43.49143" lon="6.79538">
        <ele>415.43</ele>
        <time>2012-05-25T11:25:28Z</time>
      </trkpt>
      <trkpt lat="43.49143" lon="6.79509">
        <ele>417.83</ele>
        <time>2012-05-25T11:25:51Z</time>
      </trkpt>
      <trkpt lat="43.49139" lon="6.79483">
        <ele>419.75</ele>
        <time>2012-05-25T11:26:12Z</time>
      </trkpt>
      <trkpt lat="43.49136" lon="6.79457">
        <ele>421.19</ele>
        <time>2012-05-25T11:26:32Z</time>
      </trkpt>
      <trkpt lat="43.49133" lon="6.79448">
        <ele>421.68</ele>
        <time>2012-05-25T11:26:41Z</time>
      </trkpt>
      <trkpt lat="43.49122" lon="6.79421">
        <ele>424.08</ele>
        <time>2012-05-25T11:27:05Z</time>
      </trkpt>
      <trkpt lat="43.49105" lon="6.794">
        <ele>425.04</ele>
        <time>2012-05-25T11:27:27Z</time>
      </trkpt>
      <trkpt lat="43.49081" lon="6.79388">
        <ele>425.04</ele>
        <time>2012-05-25T11:27:51Z</time>
      </trkpt>
      <trkpt lat="43.49074" lon="6.79387">
        <ele>425.52</ele>
        <time>2012-05-25T11:28:10Z</time>
      </trkpt>
      <trkpt lat="43.49059" lon="6.79386">
        <ele>425.04</ele>
        <time>2012-05-25T11:28:22Z</time>
      </trkpt>
      <trkpt lat="43.49031" lon="6.79376">
        <ele>422.64</ele>
        <time>2012-05-25T11:28:35Z</time>
      </trkpt>
      <trkpt lat="43.49026" lon="6.79375">
        <ele>422.16</ele>
        <time>2012-05-25T11:28:53Z</time>
      </trkpt>
      <trkpt lat="43.4902" lon="6.79368">
        <ele>421.68</ele>
        <time>2012-05-25T11:29:03Z</time>
      </trkpt>
      <trkpt lat="43.49011" lon="6.79358">
        <ele>419.75</ele>
        <time>2012-05-25T11:29:20Z</time>
      </trkpt>
      <trkpt lat="43.48994" lon="6.79336">
        <ele>417.35</ele>
        <time>2012-05-25T11:29:42Z</time>
      </trkpt>
      <trkpt lat="43.48984" lon="6.79327">
        <ele>416.39</ele>
        <time>2012-05-25T11:29:54Z</time>
      </trkpt>
      <trkpt lat="43.48969" lon="6.79324">
        <ele>414.47</ele>
        <time>2012-05-25T11:30:09Z</time>
      </trkpt>
      <trkpt lat="43.4895" lon="6.79321">
        <ele>412.54</ele>
        <time>2012-05-25T11:30:38Z</time>
      </trkpt>
      <trkpt lat="43.48931" lon="6.79314">
        <ele>410.62</ele>
        <time>2012-05-25T11:30:51Z</time>
      </trkpt>
      <trkpt lat="43.48914" lon="6.79303">
        <ele>408.22</ele>
        <time>2012-05-25T11:30:59Z</time>
      </trkpt>
      <trkpt lat="43.48899" lon="6.79262">
        <ele>405.33</ele>
        <time>2012-05-25T11:31:07Z</time>
      </trkpt>
      <trkpt lat="43.48894" lon="6.79248">
        <ele>404.37</ele>
        <time>2012-05-25T11:31:16Z</time>
      </trkpt>
      <trkpt lat="43.48892" lon="6.79244">
        <ele>403.89</ele>
        <time>2012-05-25T11:31:24Z</time>
      </trkpt>
      <trkpt lat="43.48888" lon="6.79239">
        <ele>403.41</ele>
        <time>2012-05-25T11:31:27Z</time>
      </trkpt>
      <trkpt lat="43.48853" lon="6.79224">
        <ele>400.53</ele>
        <time>2012-05-25T11:31:41Z</time>
      </trkpt>
      <trkpt lat="43.4882" lon="6.79204">
        <ele>397.16</ele>
        <time>2012-05-25T11:31:53Z</time>
      </trkpt>
      <trkpt lat="43.48794" lon="6.79185">
        <ele>394.28</ele>
        <time>2012-05-25T11:32:02Z</time>
      </trkpt>
      <trkpt lat="43.48778" lon="6.79151">
        <ele>390.91</ele>
        <time>2012-05-25T11:32:14Z</time>
      </trkpt>
      <trkpt lat="43.48751" lon="6.79135">
        <ele>388.03</ele>
        <time>2012-05-25T11:32:22Z</time>
      </trkpt>
      <trkpt lat="43.48748" lon="6.79135">
        <ele>388.03</ele>
        <time>2012-05-25T11:32:23Z</time>
      </trkpt>
      <trkpt lat="43.48743" lon="6.79141">
        <ele>387.07</ele>
        <time>2012-05-25T11:32:33Z</time>
      </trkpt>
      <trkpt lat="43.48743" lon="6.79142">
        <ele>387.07</ele>
        <time>2012-05-25T11:32:47Z</time>
      </trkpt>
      <trkpt lat="43.48737" lon="6.79154">
        <ele>386.59</ele>
        <time>2012-05-25T11:32:54Z</time>
      </trkpt>
      <trkpt lat="43.48713" lon="6.79179">
        <ele>385.15</ele>
        <time>2012-05-25T11:33:04Z</time>
      </trkpt>
      <trkpt lat="43.48699" lon="6.79217">
        <ele>383.22</ele>
        <time>2012-05-25T11:33:17Z</time>
      </trkpt>
      <trkpt lat="43.48679" lon="6.79234">
        <ele>382.74</ele>
        <time>2012-05-25T11:33:23Z</time>
      </trkpt>
      <trkpt lat="43.48659" lon="6.79216">
        <ele>380.82</ele>
        <time>2012-05-25T11:33:34Z</time>
      </trkpt>
      <trkpt lat="43.48642" lon="6.79205">
        <ele>379.38</ele>
        <time>2012-05-25T11:33:46Z</time>
      </trkpt>
      <trkpt lat="43.48613" lon="6.79194">
        <ele>376.01</ele>
        <time>2012-05-25T11:33:58Z</time>
      </trkpt>
      <trkpt lat="43.486" lon="6.79189">
        <ele>374.09</ele>
        <time>2012-05-25T11:34:10Z</time>
      </trkpt>
      <trkpt lat="43.48584" lon="6.79181">
        <ele>373.13</ele>
        <time>2012-05-25T11:34:22Z</time>
      </trkpt>
      <trkpt lat="43.48563" lon="6.79161">
        <ele>369.76</ele>
        <time>2012-05-25T11:34:36Z</time>
      </trkpt>
      <trkpt lat="43.4856" lon="6.79124">
        <ele>367.36</ele>
        <time>2012-05-25T11:34:48Z</time>
      </trkpt>
      <trkpt lat="43.48559" lon="6.79101">
        <ele>365.44</ele>
        <time>2012-05-25T11:35:00Z</time>
      </trkpt>
      <trkpt lat="43.48559" lon="6.7909">
        <ele>364</ele>
        <time>2012-05-25T11:35:14Z</time>
      </trkpt>
      <trkpt lat="43.48561" lon="6.79059">
        <ele>362.07</ele>
        <time>2012-05-25T11:35:34Z</time>
      </trkpt>
      <trkpt lat="43.48568" lon="6.79033">
        <ele>360.15</ele>
        <time>2012-05-25T11:35:51Z</time>
      </trkpt>
      <trkpt lat="43.48572" lon="6.79001">
        <ele>357.75</ele>
        <time>2012-05-25T11:36:11Z</time>
      </trkpt>
      <trkpt lat="43.48581" lon="6.78971">
        <ele>356.31</ele>
        <time>2012-05-25T11:36:31Z</time>
      </trkpt>
      <trkpt lat="43.48588" lon="6.78957">
        <ele>355.83</ele>
        <time>2012-05-25T11:36:49Z</time>
      </trkpt>
      <trkpt lat="43.48575" lon="6.78962">
        <ele>354.86</ele>
        <time>2012-05-25T11:37:09Z</time>
      </trkpt>
      <trkpt lat="43.48585" lon="6.78963">
        <ele>355.83</ele>
        <time>2012-05-25T11:37:25Z</time>
      </trkpt>
      <trkpt lat="43.48585" lon="6.78961">
        <ele>355.34</ele>
        <time>2012-05-25T11:38:15Z</time>
      </trkpt>
      <trkpt lat="43.48584" lon="6.78958">
        <ele>355.34</ele>
        <time>2012-05-25T11:38:40Z</time>
      </trkpt>
      <trkpt lat="43.4858" lon="6.78945">
        <ele>354.38</ele>
        <time>2012-05-25T11:39:02Z</time>
      </trkpt>
      <trkpt lat="43.48581" lon="6.78935">
        <ele>354.38</ele>
        <time>2012-05-25T11:39:16Z</time>
      </trkpt>
      <trkpt lat="43.4858" lon="6.78939">
        <ele>353.9</ele>
        <time>2012-05-25T11:39:33Z</time>
      </trkpt>
      <trkpt lat="43.4858" lon="6.7894">
        <ele>353.9</ele>
        <time>2012-05-25T11:39:34Z</time>
      </trkpt>
      <trkpt lat="43.48578" lon="6.7896">
        <ele>355.34</ele>
        <time>2012-05-25T11:39:50Z</time>
      </trkpt>
      <trkpt lat="43.48579" lon="6.7896">
        <ele>355.34</ele>
        <time>2012-05-25T11:39:51Z</time>
      </trkpt>
      <trkpt lat="43.48585" lon="6.78963">
        <ele>355.34</ele>
        <time>2012-05-25T11:39:57Z</time>
      </trkpt>
      <trkpt lat="43.48581" lon="6.78968">
        <ele>355.83</ele>
        <time>2012-05-25T11:40:11Z</time>
      </trkpt>
      <trkpt lat="43.48583" lon="6.78967">
        <ele>355.34</ele>
        <time>2012-05-25T11:40:19Z</time>
      </trkpt>
      <trkpt lat="43.48584" lon="6.78962">
        <ele>355.34</ele>
        <time>2012-05-25T11:40:23Z</time>
      </trkpt>
      <trkpt lat="43.48581" lon="6.78941">
        <ele>353.9</ele>
        <time>2012-05-25T11:40:42Z</time>
      </trkpt>
      <trkpt lat="43.48584" lon="6.78937">
        <ele>354.38</ele>
        <time>2012-05-25T11:40:54Z</time>
      </trkpt>
      <trkpt lat="43.48583" lon="6.78938">
        <ele>353.9</ele>
        <time>2012-05-25T11:41:45Z</time>
      </trkpt>
      <trkpt lat="43.4858" lon="6.7895">
        <ele>353.9</ele>
        <time>2012-05-25T11:41:57Z</time>
      </trkpt>
      <trkpt lat="43.48576" lon="6.78959">
        <ele>354.86</ele>
        <time>2012-05-25T11:42:17Z</time>
      </trkpt>
      <trkpt lat="43.48579" lon="6.78959">
        <ele>354.86</ele>
        <time>2012-05-25T11:43:39Z</time>
      </trkpt>
      <trkpt lat="43.48582" lon="6.78959">
        <ele>354.38</ele>
        <time>2012-05-25T11:43:56Z</time>
      </trkpt>
      <trkpt lat="43.48582" lon="6.78958">
        <ele>354.38</ele>
        <time>2012-05-25T11:44:12Z</time>
      </trkpt>
      <trkpt lat="43.48581" lon="6.78958">
        <ele>355.34</ele>
        <time>2012-05-25T11:44:30Z</time>
      </trkpt>
      <trkpt lat="43.48591" lon="6.78962">
        <ele>355.34</ele>
        <time>2012-05-25T11:44:40Z</time>
      </trkpt>
      <trkpt lat="43.48596" lon="6.78962">
        <ele>355.34</ele>
        <time>2012-05-25T11:44:44Z</time>
      </trkpt>
      <trkpt lat="43.4862" lon="6.78958">
        <ele>354.38</ele>
        <time>2012-05-25T11:44:59Z</time>
      </trkpt>
      <trkpt lat="43.48672" lon="6.78953">
        <ele>352.94</ele>
        <time>2012-05-25T11:45:16Z</time>
      </trkpt>
      <trkpt lat="43.48717" lon="6.78965">
        <ele>351.5</ele>
        <time>2012-05-25T11:45:28Z</time>
      </trkpt>
      <trkpt lat="43.48752" lon="6.78957">
        <ele>350.54</ele>
        <time>2012-05-25T11:45:39Z</time>
      </trkpt>
      <trkpt lat="43.48805" lon="6.78967">
        <ele>348.62</ele>
        <time>2012-05-25T11:45:55Z</time>
      </trkpt>
      <trkpt lat="43.48853" lon="6.78949">
        <ele>346.69</ele>
        <time>2012-05-25T11:46:09Z</time>
      </trkpt>
      <trkpt lat="43.48888" lon="6.78936">
        <ele>345.25</ele>
        <time>2012-05-25T11:46:21Z</time>
      </trkpt>
      <trkpt lat="43.48921" lon="6.78896">
        <ele>344.29</ele>
        <time>2012-05-25T11:46:35Z</time>
      </trkpt>
      <trkpt lat="43.48928" lon="6.78883">
        <ele>344.29</ele>
        <time>2012-05-25T11:46:41Z</time>
      </trkpt>
      <trkpt lat="43.48928" lon="6.78876">
        <ele>343.81</ele>
        <time>2012-05-25T11:46:47Z</time>
      </trkpt>
      <trkpt lat="43.48915" lon="6.7888">
        <ele>343.33</ele>
        <time>2012-05-25T11:46:51Z</time>
      </trkpt>
      <trkpt lat="43.48882" lon="6.78909">
        <ele>340.44</ele>
        <time>2012-05-25T11:46:56Z</time>
      </trkpt>
      <trkpt lat="43.48849" lon="6.78918">
        <ele>338.04</ele>
        <time>2012-05-25T11:47:00Z</time>
      </trkpt>
      <trkpt lat="43.48811" lon="6.78921">
        <ele>334.2</ele>
        <time>2012-05-25T11:47:04Z</time>
      </trkpt>
      <trkpt lat="43.48793" lon="6.78921">
        <ele>332.75</ele>
        <time>2012-05-25T11:47:06Z</time>
      </trkpt>
      <trkpt lat="43.48777" lon="6.78912">
        <ele>330.35</ele>
        <time>2012-05-25T11:47:08Z</time>
      </trkpt>
      <trkpt lat="43.48754" lon="6.78887">
        <ele>326.99</ele>
        <time>2012-05-25T11:47:11Z</time>
      </trkpt>
      <trkpt lat="43.48674" lon="6.78859">
        <ele>323.14</ele>
        <time>2012-05-25T11:47:19Z</time>
      </trkpt>
      <trkpt lat="43.48644" lon="6.78853">
        <ele>319.78</ele>
        <time>2012-05-25T11:47:22Z</time>
      </trkpt>
      <trkpt lat="43.48623" lon="6.7884">
        <ele>316.89</ele>
        <time>2012-05-25T11:47:25Z</time>
      </trkpt>
      <trkpt lat="43.48617" lon="6.78818">
        <ele>314.49</ele>
        <time>2012-05-25T11:47:27Z</time>
      </trkpt>
      <trkpt lat="43.48618" lon="6.78791">
        <ele>312.09</ele>
        <time>2012-05-25T11:47:29Z</time>
      </trkpt>
      <trkpt lat="43.4861" lon="6.78743">
        <ele>307.76</ele>
        <time>2012-05-25T11:47:33Z</time>
      </trkpt>
      <trkpt lat="43.486" lon="6.78718">
        <ele>306.8</ele>
        <time>2012-05-25T11:47:35Z</time>
      </trkpt>
      <trkpt lat="43.48584" lon="6.78676">
        <ele>302.47</ele>
        <time>2012-05-25T11:47:38Z</time>
      </trkpt>
      <trkpt lat="43.48575" lon="6.78649">
        <ele>299.11</ele>
        <time>2012-05-25T11:47:40Z</time>
      </trkpt>
      <trkpt lat="43.48565" lon="6.78606">
        <ele>294.78</ele>
        <time>2012-05-25T11:47:43Z</time>
      </trkpt>
      <trkpt lat="43.48561" lon="6.7859">
        <ele>294.78</ele>
        <time>2012-05-25T11:47:44Z</time>
      </trkpt>
      <trkpt lat="43.48549" lon="6.78545">
        <ele>289.97</ele>
        <time>2012-05-25T11:47:47Z</time>
      </trkpt>
      <trkpt lat="43.48546" lon="6.78533">
        <ele>288.53</ele>
        <time>2012-05-25T11:47:48Z</time>
      </trkpt>
      <trkpt lat="43.48523" lon="6.78497">
        <ele>283.73</ele>
        <time>2012-05-25T11:47:52Z</time>
      </trkpt>
      <trkpt lat="43.48515" lon="6.78488">
        <ele>282.77</ele>
        <time>2012-05-25T11:47:53Z</time>
      </trkpt>
      <trkpt lat="43.485" lon="6.78468">
        <ele>281.8</ele>
        <time>2012-05-25T11:47:55Z</time>
      </trkpt>
      <trkpt lat="43.48484" lon="6.78416">
        <ele>276.52</ele>
        <time>2012-05-25T11:47:59Z</time>
      </trkpt>
      <trkpt lat="43.48484" lon="6.78403">
        <ele>275.07</ele>
        <time>2012-05-25T11:48:00Z</time>
      </trkpt>
      <trkpt lat="43.48488" lon="6.78368">
        <ele>270.75</ele>
        <time>2012-05-25T11:48:03Z</time>
      </trkpt>
      <trkpt lat="43.4847" lon="6.78332">
        <ele>267.38</ele>
        <time>2012-05-25T11:48:07Z</time>
      </trkpt>
      <trkpt lat="43.48438" lon="6.78315">
        <ele>263.54</ele>
        <time>2012-05-25T11:48:11Z</time>
      </trkpt>
      <trkpt lat="43.48421" lon="6.78317">
        <ele>263.06</ele>
        <time>2012-05-25T11:48:13Z</time>
      </trkpt>
      <trkpt lat="43.48399" lon="6.78335">
        <ele>260.65</ele>
        <time>2012-05-25T11:48:16Z</time>
      </trkpt>
      <trkpt lat="43.48349" lon="6.78397">
        <ele>256.33</ele>
        <time>2012-05-25T11:48:23Z</time>
      </trkpt>
      <trkpt lat="43.48332" lon="6.78412">
        <ele>254.89</ele>
        <time>2012-05-25T11:48:25Z</time>
      </trkpt>
      <trkpt lat="43.48295" lon="6.78429">
        <ele>250.56</ele>
        <time>2012-05-25T11:48:29Z</time>
      </trkpt>
      <trkpt lat="43.48272" lon="6.78413">
        <ele>248.64</ele>
        <time>2012-05-25T11:48:32Z</time>
      </trkpt>
      <trkpt lat="43.48242" lon="6.78373">
        <ele>244.79</ele>
        <time>2012-05-25T11:48:36Z</time>
      </trkpt>
      <trkpt lat="43.48213" lon="6.78349">
        <ele>240.95</ele>
        <time>2012-05-25T11:48:39Z</time>
      </trkpt>
      <trkpt lat="43.48195" lon="6.78334">
        <ele>239.51</ele>
        <time>2012-05-25T11:48:41Z</time>
      </trkpt>
      <trkpt lat="43.48178" lon="6.78319">
        <ele>236.62</ele>
        <time>2012-05-25T11:48:43Z</time>
      </trkpt>
      <trkpt lat="43.48149" lon="6.78287">
        <ele>231.81</ele>
        <time>2012-05-25T11:48:47Z</time>
      </trkpt>
      <trkpt lat="43.48133" lon="6.78275">
        <ele>229.89</ele>
        <time>2012-05-25T11:48:50Z</time>
      </trkpt>
      <trkpt lat="43.48114" lon="6.78285">
        <ele>227.01</ele>
        <time>2012-05-25T11:48:53Z</time>
      </trkpt>
      <trkpt lat="43.481" lon="6.78301">
        <ele>225.57</ele>
        <time>2012-05-25T11:48:55Z</time>
      </trkpt>
      <trkpt lat="43.48072" lon="6.78304">
        <ele>221.72</ele>
        <time>2012-05-25T11:48:59Z</time>
      </trkpt>
      <trkpt lat="43.48066" lon="6.78295">
        <ele>221.72</ele>
        <time>2012-05-25T11:49:00Z</time>
      </trkpt>
      <trkpt lat="43.48061" lon="6.78285">
        <ele>220.76</ele>
        <time>2012-05-25T11:49:01Z</time>
      </trkpt>
      <trkpt lat="43.48043" lon="6.78246">
        <ele>217.4</ele>
        <time>2012-05-25T11:49:05Z</time>
      </trkpt>
      <trkpt lat="43.48017" lon="6.78239">
        <ele>214.99</ele>
        <time>2012-05-25T11:49:10Z</time>
      </trkpt>
      <trkpt lat="43.48012" lon="6.78245">
        <ele>214.03</ele>
        <time>2012-05-25T11:49:11Z</time>
      </trkpt>
      <trkpt lat="43.48003" lon="6.78258">
        <ele>212.59</ele>
        <time>2012-05-25T11:49:13Z</time>
      </trkpt>
      <trkpt lat="43.47965" lon="6.78248">
        <ele>208.26</ele>
        <time>2012-05-25T11:49:19Z</time>
      </trkpt>
      <trkpt lat="43.47923" lon="6.782">
        <ele>204.42</ele>
        <time>2012-05-25T11:49:25Z</time>
      </trkpt>
      <trkpt lat="43.47896" lon="6.78156">
        <ele>201.53</ele>
        <time>2012-05-25T11:49:29Z</time>
      </trkpt>
      <trkpt lat="43.47867" lon="6.78109">
        <ele>198.17</ele>
        <time>2012-05-25T11:49:33Z</time>
      </trkpt>
      <trkpt lat="43.47841" lon="6.7807">
        <ele>194.8</ele>
        <time>2012-05-25T11:49:37Z</time>
      </trkpt>
      <trkpt lat="43.47828" lon="6.78053">
        <ele>194.32</ele>
        <time>2012-05-25T11:49:39Z</time>
      </trkpt>
      <trkpt lat="43.47812" lon="6.7804">
        <ele>192.88</ele>
        <time>2012-05-25T11:49:41Z</time>
      </trkpt>
      <trkpt lat="43.47783" lon="6.78025">
        <ele>189.52</ele>
        <time>2012-05-25T11:49:44Z</time>
      </trkpt>
      <trkpt lat="43.47751" lon="6.77995">
        <ele>183.75</ele>
        <time>2012-05-25T11:49:48Z</time>
      </trkpt>
      <trkpt lat="43.47744" lon="6.77985">
        <ele>183.75</ele>
        <time>2012-05-25T11:49:49Z</time>
      </trkpt>
      <trkpt lat="43.47706" lon="6.77962">
        <ele>179.42</ele>
        <time>2012-05-25T11:49:54Z</time>
      </trkpt>
      <trkpt lat="43.47687" lon="6.77964">
        <ele>177.5</ele>
        <time>2012-05-25T11:49:56Z</time>
      </trkpt>
      <trkpt lat="43.47656" lon="6.77974">
        <ele>175.58</ele>
        <time>2012-05-25T11:49:59Z</time>
      </trkpt>
      <trkpt lat="43.47637" lon="6.77988">
        <ele>173.66</ele>
        <time>2012-05-25T11:50:01Z</time>
      </trkpt>
      <trkpt lat="43.47601" lon="6.78024">
        <ele>168.85</ele>
        <time>2012-05-25T11:50:05Z</time>
      </trkpt>
      <trkpt lat="43.47573" lon="6.78053">
        <ele>166.45</ele>
        <time>2012-05-25T11:50:08Z</time>
      </trkpt>
      <trkpt lat="43.47555" lon="6.78074">
        <ele>163.56</ele>
        <time>2012-05-25T11:50:10Z</time>
      </trkpt>
      <trkpt lat="43.47513" lon="6.78098">
        <ele>158.75</ele>
        <time>2012-05-25T11:50:14Z</time>
      </trkpt>
      <trkpt lat="43.47493" lon="6.78093">
        <ele>157.31</ele>
        <time>2012-05-25T11:50:16Z</time>
      </trkpt>
      <trkpt lat="43.47475" lon="6.78084">
        <ele>156.83</ele>
        <time>2012-05-25T11:50:18Z</time>
      </trkpt>
      <trkpt lat="43.47434" lon="6.78098">
        <ele>155.39</ele>
        <time>2012-05-25T11:50:24Z</time>
      </trkpt>
      <trkpt lat="43.47405" lon="6.78138">
        <ele>153.47</ele>
        <time>2012-05-25T11:50:31Z</time>
      </trkpt>
      <trkpt lat="43.4738" lon="6.78142">
        <ele>152.03</ele>
        <time>2012-05-25T11:50:36Z</time>
      </trkpt>
      <trkpt lat="43.47338" lon="6.78127">
        <ele>150.58</ele>
        <time>2012-05-25T11:50:44Z</time>
      </trkpt>
      <trkpt lat="43.47308" lon="6.7811">
        <ele>149.14</ele>
        <time>2012-05-25T11:50:49Z</time>
      </trkpt>
      <trkpt lat="43.47298" lon="6.78097">
        <ele>148.18</ele>
        <time>2012-05-25T11:50:51Z</time>
      </trkpt>
      <trkpt lat="43.47269" lon="6.78082">
        <ele>146.26</ele>
        <time>2012-05-25T11:50:56Z</time>
      </trkpt>
      <trkpt lat="43.47246" lon="6.78059">
        <ele>144.82</ele>
        <time>2012-05-25T11:51:01Z</time>
      </trkpt>
      <trkpt lat="43.47225" lon="6.77998">
        <ele>142.41</ele>
        <time>2012-05-25T11:51:08Z</time>
      </trkpt>
      <trkpt lat="43.47221" lon="6.77973">
        <ele>141.45</ele>
        <time>2012-05-25T11:51:11Z</time>
      </trkpt>
      <trkpt lat="43.47222" lon="6.77941">
        <ele>139.53</ele>
        <time>2012-05-25T11:51:15Z</time>
      </trkpt>
      <trkpt lat="43.4722" lon="6.77922">
        <ele>139.05</ele>
        <time>2012-05-25T11:51:17Z</time>
      </trkpt>
      <trkpt lat="43.47187" lon="6.77875">
        <ele>135.68</ele>
        <time>2012-05-25T11:51:23Z</time>
      </trkpt>
      <trkpt lat="43.47154" lon="6.77868">
        <ele>133.76</ele>
        <time>2012-05-25T11:51:27Z</time>
      </trkpt>
      <trkpt lat="43.47145" lon="6.7787">
        <ele>132.8</ele>
        <time>2012-05-25T11:51:28Z</time>
      </trkpt>
      <trkpt lat="43.47106" lon="6.77868">
        <ele>129.92</ele>
        <time>2012-05-25T11:51:33Z</time>
      </trkpt>
      <trkpt lat="43.47094" lon="6.77849">
        <ele>127.99</ele>
        <time>2012-05-25T11:51:35Z</time>
      </trkpt>
      <trkpt lat="43.47079" lon="6.77833">
        <ele>127.03</ele>
        <time>2012-05-25T11:51:37Z</time>
      </trkpt>
      <trkpt lat="43.47037" lon="6.77834">
        <ele>123.67</ele>
        <time>2012-05-25T11:51:42Z</time>
      </trkpt>
      <trkpt lat="43.47026" lon="6.77863">
        <ele>122.71</ele>
        <time>2012-05-25T11:51:45Z</time>
      </trkpt>
      <trkpt lat="43.47024" lon="6.77882">
        <ele>122.71</ele>
        <time>2012-05-25T11:51:47Z</time>
      </trkpt>
      <trkpt lat="43.47007" lon="6.77917">
        <ele>121.26</ele>
        <time>2012-05-25T11:51:52Z</time>
      </trkpt>
      <trkpt lat="43.46995" lon="6.7793">
        <ele>120.3</ele>
        <time>2012-05-25T11:51:54Z</time>
      </trkpt>
      <trkpt lat="43.46981" lon="6.77941">
        <ele>119.82</ele>
        <time>2012-05-25T11:51:56Z</time>
      </trkpt>
      <trkpt lat="43.46946" lon="6.77967">
        <ele>115.5</ele>
        <time>2012-05-25T11:52:00Z</time>
      </trkpt>
      <trkpt lat="43.46929" lon="6.7798">
        <ele>113.09</ele>
        <time>2012-05-25T11:52:02Z</time>
      </trkpt>
      <trkpt lat="43.46906" lon="6.78018">
        <ele>109.73</ele>
        <time>2012-05-25T11:52:06Z</time>
      </trkpt>
      <trkpt lat="43.46903" lon="6.7803">
        <ele>108.77</ele>
        <time>2012-05-25T11:52:07Z</time>
      </trkpt>
      <trkpt lat="43.46848" lon="6.78065">
        <ele>106.36</ele>
        <time>2012-05-25T11:52:15Z</time>
      </trkpt>
      <trkpt lat="43.46778" lon="6.78108">
        <ele>102.52</ele>
        <time>2012-05-25T11:52:25Z</time>
      </trkpt>
      <trkpt lat="43.46732" lon="6.78143">
        <ele>99.15</ele>
        <time>2012-05-25T11:52:31Z</time>
      </trkpt>
      <trkpt lat="43.46724" lon="6.78148">
        <ele>98.19</ele>
        <time>2012-05-25T11:52:32Z</time>
      </trkpt>
      <trkpt lat="43.46691" lon="6.78157">
        <ele>94.35</ele>
        <time>2012-05-25T11:52:36Z</time>
      </trkpt>
      <trkpt lat="43.46651" lon="6.78147">
        <ele>90.02</ele>
        <time>2012-05-25T11:52:40Z</time>
      </trkpt>
      <trkpt lat="43.46642" lon="6.78144">
        <ele>88.1</ele>
        <time>2012-05-25T11:52:41Z</time>
      </trkpt>
      <trkpt lat="43.46621" lon="6.78134">
        <ele>83.29</ele>
        <time>2012-05-25T11:52:45Z</time>
      </trkpt>
      <trkpt lat="43.46619" lon="6.78132">
        <ele>82.81</ele>
        <time>2012-05-25T11:52:47Z</time>
      </trkpt>
      <trkpt lat="43.46615" lon="6.78134">
        <ele>81.37</ele>
        <time>2012-05-25T11:52:51Z</time>
      </trkpt>
      <trkpt lat="43.46608" lon="6.78128">
        <ele>80.89</ele>
        <time>2012-05-25T11:53:03Z</time>
      </trkpt>
      <trkpt lat="43.46601" lon="6.78125">
        <ele>80.41</ele>
        <time>2012-05-25T11:53:52Z</time>
      </trkpt>
      <trkpt lat="43.46602" lon="6.78125">
        <ele>78.48</ele>
        <time>2012-05-25T11:55:55Z</time>
      </trkpt>
      <trkpt lat="43.466" lon="6.78119">
        <ele>78.48</ele>
        <time>2012-05-25T11:56:00Z</time>
      </trkpt>
      <trkpt lat="43.46583" lon="6.78088">
        <ele>77.52</ele>
        <time>2012-05-25T11:56:11Z</time>
      </trkpt>
      <trkpt lat="43.46542" lon="6.78071">
        <ele>76.56</ele>
        <time>2012-05-25T11:56:22Z</time>
      </trkpt>
      <trkpt lat="43.46496" lon="6.78071">
        <ele>76.08</ele>
        <time>2012-05-25T11:56:31Z</time>
      </trkpt>
      <trkpt lat="43.46434" lon="6.7809">
        <ele>75.12</ele>
        <time>2012-05-25T11:56:42Z</time>
      </trkpt>
      <trkpt lat="43.46341" lon="6.78104">
        <ele>72.72</ele>
        <time>2012-05-25T11:56:57Z</time>
      </trkpt>
      <trkpt lat="43.46316" lon="6.78099">
        <ele>72.72</ele>
        <time>2012-05-25T11:57:01Z</time>
      </trkpt>
      <trkpt lat="43.4626" lon="6.78061">
        <ele>71.27</ele>
        <time>2012-05-25T11:57:10Z</time>
      </trkpt>
      <trkpt lat="43.46226" lon="6.78052">
        <ele>70.31</ele>
        <time>2012-05-25T11:57:15Z</time>
      </trkpt>
      <trkpt lat="43.46186" lon="6.78009">
        <ele>69.83</ele>
        <time>2012-05-25T11:57:23Z</time>
      </trkpt>
      <trkpt lat="43.46153" lon="6.77936">
        <ele>69.83</ele>
        <time>2012-05-25T11:57:33Z</time>
      </trkpt>
      <trkpt lat="43.46144" lon="6.77899">
        <ele>70.79</ele>
        <time>2012-05-25T11:57:38Z</time>
      </trkpt>
      <trkpt lat="43.46143" lon="6.77851">
        <ele>72.24</ele>
        <time>2012-05-25T11:57:45Z</time>
      </trkpt>
      <trkpt lat="43.46168" lon="6.77779">
        <ele>76.08</ele>
        <time>2012-05-25T11:57:57Z</time>
      </trkpt>
      <trkpt lat="43.46205" lon="6.77694">
        <ele>78.48</ele>
        <time>2012-05-25T11:58:15Z</time>
      </trkpt>
      <trkpt lat="43.46227" lon="6.776">
        <ele>77.04</ele>
        <time>2012-05-25T11:58:29Z</time>
      </trkpt>
      <trkpt lat="43.46234" lon="6.77502">
        <ele>78.48</ele>
        <time>2012-05-25T11:58:45Z</time>
      </trkpt>
      <trkpt lat="43.46232" lon="6.77477">
        <ele>78.48</ele>
        <time>2012-05-25T11:58:49Z</time>
      </trkpt>
      <trkpt lat="43.46232" lon="6.77457">
        <ele>78.97</ele>
        <time>2012-05-25T11:58:52Z</time>
      </trkpt>
      <trkpt lat="43.46226" lon="6.77423">
        <ele>78.48</ele>
        <time>2012-05-25T11:58:58Z</time>
      </trkpt>
      <trkpt lat="43.46218" lon="6.77404">
        <ele>78.97</ele>
        <time>2012-05-25T11:59:02Z</time>
      </trkpt>
      <trkpt lat="43.46209" lon="6.77362">
        <ele>78.48</ele>
        <time>2012-05-25T11:59:11Z</time>
      </trkpt>
      <trkpt lat="43.46207" lon="6.77254">
        <ele>75.12</ele>
        <time>2012-05-25T11:59:25Z</time>
      </trkpt>
      <trkpt lat="43.46204" lon="6.77124">
        <ele>72.24</ele>
        <time>2012-05-25T11:59:38Z</time>
      </trkpt>
      <trkpt lat="43.46202" lon="6.77003">
        <ele>70.31</ele>
        <time>2012-05-25T11:59:51Z</time>
      </trkpt>
      <trkpt lat="43.46205" lon="6.76989">
        <ele>70.31</ele>
        <time>2012-05-25T11:59:53Z</time>
      </trkpt>
      <trkpt lat="43.46236" lon="6.76963">
        <ele>72.72</ele>
        <time>2012-05-25T12:00:02Z</time>
      </trkpt>
      <trkpt lat="43.46261" lon="6.76946">
        <ele>76.08</ele>
        <time>2012-05-25T12:00:13Z</time>
      </trkpt>
      <trkpt lat="43.46303" lon="6.76908">
        <ele>76.08</ele>
        <time>2012-05-25T12:00:28Z</time>
      </trkpt>
      <trkpt lat="43.46348" lon="6.76862">
        <ele>79.45</ele>
        <time>2012-05-25T12:00:48Z</time>
      </trkpt>
      <trkpt lat="43.46377" lon="6.76831">
        <ele>82.33</ele>
        <time>2012-05-25T12:01:02Z</time>
      </trkpt>
      <trkpt lat="43.46407" lon="6.76798">
        <ele>85.69</ele>
        <time>2012-05-25T12:01:18Z</time>
      </trkpt>
      <trkpt lat="43.46467" lon="6.76765">
        <ele>87.14</ele>
        <time>2012-05-25T12:01:42Z</time>
      </trkpt>
      <trkpt lat="43.46515" lon="6.76736">
        <ele>90.5</ele>
        <time>2012-05-25T12:02:03Z</time>
      </trkpt>
      <trkpt lat="43.46548" lon="6.76718">
        <ele>92.9</ele>
        <time>2012-05-25T12:02:18Z</time>
      </trkpt>
      <trkpt lat="43.4661" lon="6.76688">
        <ele>94.35</ele>
        <time>2012-05-25T12:02:41Z</time>
      </trkpt>
      <trkpt lat="43.46681" lon="6.76667">
        <ele>94.83</ele>
        <time>2012-05-25T12:02:59Z</time>
      </trkpt>
      <trkpt lat="43.46732" lon="6.76652">
        <ele>94.83</ele>
        <time>2012-05-25T12:03:11Z</time>
      </trkpt>
      <trkpt lat="43.46795" lon="6.76606">
        <ele>96.75</ele>
        <time>2012-05-25T12:03:29Z</time>
      </trkpt>
      <trkpt lat="43.46833" lon="6.76574">
        <ele>96.75</ele>
        <time>2012-05-25T12:03:45Z</time>
      </trkpt>
      <trkpt lat="43.46854" lon="6.76532">
        <ele>97.71</ele>
        <time>2012-05-25T12:03:57Z</time>
      </trkpt>
      <trkpt lat="43.46903" lon="6.76466">
        <ele>97.23</ele>
        <time>2012-05-25T12:04:15Z</time>
      </trkpt>
      <trkpt lat="43.46954" lon="6.76392">
        <ele>93.87</ele>
        <time>2012-05-25T12:04:25Z</time>
      </trkpt>
      <trkpt lat="43.46992" lon="6.76345">
        <ele>90.98</ele>
        <time>2012-05-25T12:04:31Z</time>
      </trkpt>
      <trkpt lat="43.47012" lon="6.76327">
        <ele>87.62</ele>
        <time>2012-05-25T12:04:35Z</time>
      </trkpt>
      <trkpt lat="43.47013" lon="6.76329">
        <ele>86.66</ele>
        <time>2012-05-25T12:04:43Z</time>
      </trkpt>
      <trkpt lat="43.47031" lon="6.76312">
        <ele>85.21</ele>
        <time>2012-05-25T12:04:48Z</time>
      </trkpt>
      <trkpt lat="43.47056" lon="6.76271">
        <ele>81.37</ele>
        <time>2012-05-25T12:04:53Z</time>
      </trkpt>
      <trkpt lat="43.47059" lon="6.76258">
        <ele>80.41</ele>
        <time>2012-05-25T12:04:54Z</time>
      </trkpt>
      <trkpt lat="43.47063" lon="6.7623">
        <ele>79.45</ele>
        <time>2012-05-25T12:04:56Z</time>
      </trkpt>
      <trkpt lat="43.47065" lon="6.76214">
        <ele>78</ele>
        <time>2012-05-25T12:04:57Z</time>
      </trkpt>
      <trkpt lat="43.47077" lon="6.76168">
        <ele>73.2</ele>
        <time>2012-05-25T12:05:00Z</time>
      </trkpt>
      <trkpt lat="43.4709" lon="6.76136">
        <ele>69.83</ele>
        <time>2012-05-25T12:05:02Z</time>
      </trkpt>
      <trkpt lat="43.47101" lon="6.76105">
        <ele>66.95</ele>
        <time>2012-05-25T12:05:04Z</time>
      </trkpt>
      <trkpt lat="43.47117" lon="6.76058">
        <ele>64.07</ele>
        <time>2012-05-25T12:05:07Z</time>
      </trkpt>
      <trkpt lat="43.47128" lon="6.76006">
        <ele>59.26</ele>
        <time>2012-05-25T12:05:10Z</time>
      </trkpt>
      <trkpt lat="43.47134" lon="6.75971">
        <ele>55.89</ele>
        <time>2012-05-25T12:05:12Z</time>
      </trkpt>
      <trkpt lat="43.4714" lon="6.75937">
        <ele>52.53</ele>
        <time>2012-05-25T12:05:14Z</time>
      </trkpt>
      <trkpt lat="43.47144" lon="6.75907">
        <ele>49.65</ele>
        <time>2012-05-25T12:05:16Z</time>
      </trkpt>
      <trkpt lat="43.47145" lon="6.75894">
        <ele>49.65</ele>
        <time>2012-05-25T12:05:17Z</time>
      </trkpt>
      <trkpt lat="43.47159" lon="6.75854">
        <ele>46.28</ele>
        <time>2012-05-25T12:05:21Z</time>
      </trkpt>
      <trkpt lat="43.47168" lon="6.75819">
        <ele>45.8</ele>
        <time>2012-05-25T12:05:25Z</time>
      </trkpt>
      <trkpt lat="43.47168" lon="6.75783">
        <ele>46.28</ele>
        <time>2012-05-25T12:05:29Z</time>
      </trkpt>
      <trkpt lat="43.47179" lon="6.75744">
        <ele>46.28</ele>
        <time>2012-05-25T12:05:34Z</time>
      </trkpt>
      <trkpt lat="43.4719" lon="6.75685">
        <ele>44.84</ele>
        <time>2012-05-25T12:05:41Z</time>
      </trkpt>
      <trkpt lat="43.47188" lon="6.75666">
        <ele>44.36</ele>
        <time>2012-05-25T12:05:43Z</time>
      </trkpt>
      <trkpt lat="43.47206" lon="6.75602">
        <ele>42.92</ele>
        <time>2012-05-25T12:05:50Z</time>
      </trkpt>
      <trkpt lat="43.4727" lon="6.75445">
        <ele>41.95</ele>
        <time>2012-05-25T12:06:10Z</time>
      </trkpt>
      <trkpt lat="43.47273" lon="6.75379">
        <ele>41.47</ele>
        <time>2012-05-25T12:06:18Z</time>
      </trkpt>
      <trkpt lat="43.47281" lon="6.75343">
        <ele>41.47</ele>
        <time>2012-05-25T12:06:23Z</time>
      </trkpt>
      <trkpt lat="43.47295" lon="6.75311">
        <ele>41.47</ele>
        <time>2012-05-25T12:06:28Z</time>
      </trkpt>
      <trkpt lat="43.4734" lon="6.75232">
        <ele>40.03</ele>
        <time>2012-05-25T12:06:40Z</time>
      </trkpt>
      <trkpt lat="43.47358" lon="6.75185">
        <ele>39.55</ele>
        <time>2012-05-25T12:06:46Z</time>
      </trkpt>
      <trkpt lat="43.47371" lon="6.75071">
        <ele>39.55</ele>
        <time>2012-05-25T12:07:00Z</time>
      </trkpt>
      <trkpt lat="43.47391" lon="6.74993">
        <ele>39.07</ele>
        <time>2012-05-25T12:07:11Z</time>
      </trkpt>
      <trkpt lat="43.47394" lon="6.74954">
        <ele>38.11</ele>
        <time>2012-05-25T12:07:16Z</time>
      </trkpt>
      <trkpt lat="43.47377" lon="6.74877">
        <ele>39.07</ele>
        <time>2012-05-25T12:07:26Z</time>
      </trkpt>
      <trkpt lat="43.47357" lon="6.74784">
        <ele>39.55</ele>
        <time>2012-05-25T12:07:38Z</time>
      </trkpt>
      <trkpt lat="43.47365" lon="6.74732">
        <ele>42.44</ele>
        <time>2012-05-25T12:07:50Z</time>
      </trkpt>
      <trkpt lat="43.47366" lon="6.74686">
        <ele>45.8</ele>
        <time>2012-05-25T12:08:02Z</time>
      </trkpt>
      <trkpt lat="43.47331" lon="6.7463">
        <ele>45.8</ele>
        <time>2012-05-25T12:08:18Z</time>
      </trkpt>
      <trkpt lat="43.47262" lon="6.74557">
        <ele>43.4</ele>
        <time>2012-05-25T12:08:32Z</time>
      </trkpt>
      <trkpt lat="43.47187" lon="6.74491">
        <ele>41.47</ele>
        <time>2012-05-25T12:08:48Z</time>
      </trkpt>
      <trkpt lat="43.47191" lon="6.74454">
        <ele>39.07</ele>
        <time>2012-05-25T12:08:54Z</time>
      </trkpt>
      <trkpt lat="43.47199" lon="6.74452">
        <ele>38.59</ele>
        <time>2012-05-25T12:08:55Z</time>
      </trkpt>
      <trkpt lat="43.47291" lon="6.74445">
        <ele>36.19</ele>
        <time>2012-05-25T12:09:09Z</time>
      </trkpt>
      <trkpt lat="43.47372" lon="6.74426">
        <ele>36.19</ele>
        <time>2012-05-25T12:09:23Z</time>
      </trkpt>
      <trkpt lat="43.47457" lon="6.74422">
        <ele>37.15</ele>
        <time>2012-05-25T12:09:39Z</time>
      </trkpt>
      <trkpt lat="43.47484" lon="6.74445">
        <ele>37.15</ele>
        <time>2012-05-25T12:09:45Z</time>
      </trkpt>
      <trkpt lat="43.47491" lon="6.74458">
        <ele>37.15</ele>
        <time>2012-05-25T12:09:47Z</time>
      </trkpt>
      <trkpt lat="43.47576" lon="6.74525">
        <ele>36.19</ele>
        <time>2012-05-25T12:10:03Z</time>
      </trkpt>
      <trkpt lat="43.47651" lon="6.74537">
        <ele>36.67</ele>
        <time>2012-05-25T12:10:16Z</time>
      </trkpt>
      <trkpt lat="43.47698" lon="6.74542">
        <ele>37.15</ele>
        <time>2012-05-25T12:10:24Z</time>
      </trkpt>
      <trkpt lat="43.47795" lon="6.74575">
        <ele>36.67</ele>
        <time>2012-05-25T12:10:41Z</time>
      </trkpt>
      <trkpt lat="43.47864" lon="6.74604">
        <ele>36.67</ele>
        <time>2012-05-25T12:10:53Z</time>
      </trkpt>
      <trkpt lat="43.47964" lon="6.74597">
        <ele>36.67</ele>
        <time>2012-05-25T12:11:10Z</time>
      </trkpt>
      <trkpt lat="43.4803" lon="6.74583">
        <ele>37.63</ele>
        <time>2012-05-25T12:11:22Z</time>
      </trkpt>
      <trkpt lat="43.48126" lon="6.7454">
        <ele>39.07</ele>
        <time>2012-05-25T12:11:41Z</time>
      </trkpt>
      <trkpt lat="43.48149" lon="6.74518">
        <ele>39.07</ele>
        <time>2012-05-25T12:11:46Z</time>
      </trkpt>
      <trkpt lat="43.48202" lon="6.74412">
        <ele>39.07</ele>
        <time>2012-05-25T12:12:02Z</time>
      </trkpt>
      <trkpt lat="43.48233" lon="6.74357">
        <ele>39.07</ele>
        <time>2012-05-25T12:12:11Z</time>
      </trkpt>
      <trkpt lat="43.48274" lon="6.74331">
        <ele>40.03</ele>
        <time>2012-05-25T12:12:19Z</time>
      </trkpt>
      <trkpt lat="43.48373" lon="6.74328">
        <ele>38.59</ele>
        <time>2012-05-25T12:12:36Z</time>
      </trkpt>
      <trkpt lat="43.48458" lon="6.74288">
        <ele>39.07</ele>
        <time>2012-05-25T12:12:51Z</time>
      </trkpt>
      <trkpt lat="43.48536" lon="6.74275">
        <ele>40.03</ele>
        <time>2012-05-25T12:13:05Z</time>
      </trkpt>
      <trkpt lat="43.48641" lon="6.74279">
        <ele>40.51</ele>
        <time>2012-05-25T12:13:23Z</time>
      </trkpt>
      <trkpt lat="43.48714" lon="6.7426">
        <ele>40.51</ele>
        <time>2012-05-25T12:13:36Z</time>
      </trkpt>
      <trkpt lat="43.48843" lon="6.74267">
        <ele>40.99</ele>
        <time>2012-05-25T12:13:59Z</time>
      </trkpt>
      <trkpt lat="43.48881" lon="6.74297">
        <ele>41.47</ele>
        <time>2012-05-25T12:14:07Z</time>
      </trkpt>
      <trkpt lat="43.4891" lon="6.74306">
        <ele>41.47</ele>
        <time>2012-05-25T12:14:13Z</time>
      </trkpt>
      <trkpt lat="43.49005" lon="6.74296">
        <ele>42.44</ele>
        <time>2012-05-25T12:14:31Z</time>
      </trkpt>
      <trkpt lat="43.49011" lon="6.74296">
        <ele>42.44</ele>
        <time>2012-05-25T12:14:32Z</time>
      </trkpt>
      <trkpt lat="43.49065" lon="6.74318">
        <ele>43.4</ele>
        <time>2012-05-25T12:14:42Z</time>
      </trkpt>
      <trkpt lat="43.49091" lon="6.74372">
        <ele>43.88</ele>
        <time>2012-05-25T12:14:51Z</time>
      </trkpt>
      <trkpt lat="43.49078" lon="6.74428">
        <ele>43.88</ele>
        <time>2012-05-25T12:14:58Z</time>
      </trkpt>
      <trkpt lat="43.49089" lon="6.74523">
        <ele>44.36</ele>
        <time>2012-05-25T12:15:10Z</time>
      </trkpt>
      <trkpt lat="43.49094" lon="6.74546">
        <ele>44.36</ele>
        <time>2012-05-25T12:15:13Z</time>
      </trkpt>
      <trkpt lat="43.4911" lon="6.74569">
        <ele>44.36</ele>
        <time>2012-05-25T12:15:17Z</time>
      </trkpt>
      <trkpt lat="43.49125" lon="6.74582">
        <ele>44.36</ele>
        <time>2012-05-25T12:15:20Z</time>
      </trkpt>
      <trkpt lat="43.4914" lon="6.74597">
        <ele>43.88</ele>
        <time>2012-05-25T12:15:23Z</time>
      </trkpt>
      <trkpt lat="43.49161" lon="6.74613">
        <ele>42.92</ele>
        <time>2012-05-25T12:15:27Z</time>
      </trkpt>
      <trkpt lat="43.49187" lon="6.74618">
        <ele>42.92</ele>
        <time>2012-05-25T12:15:31Z</time>
      </trkpt>
      <trkpt lat="43.49218" lon="6.74648">
        <ele>42.92</ele>
        <time>2012-05-25T12:15:37Z</time>
      </trkpt>
      <trkpt lat="43.49285" lon="6.74759">
        <ele>44.36</ele>
        <time>2012-05-25T12:15:54Z</time>
      </trkpt>
      <trkpt lat="43.49306" lon="6.74783">
        <ele>44.84</ele>
        <time>2012-05-25T12:15:59Z</time>
      </trkpt>
      <trkpt lat="43.49349" lon="6.74881">
        <ele>47.72</ele>
        <time>2012-05-25T12:16:15Z</time>
      </trkpt>
      <trkpt lat="43.49355" lon="6.75021">
        <ele>47.72</ele>
        <time>2012-05-25T12:16:33Z</time>
      </trkpt>
      <trkpt lat="43.49375" lon="6.75198">
        <ele>47.72</ele>
        <time>2012-05-25T12:16:56Z</time>
      </trkpt>
      <trkpt lat="43.49379" lon="6.75214">
        <ele>47.24</ele>
        <time>2012-05-25T12:16:58Z</time>
      </trkpt>
      <trkpt lat="43.49425" lon="6.75296">
        <ele>45.8</ele>
        <time>2012-05-25T12:17:10Z</time>
      </trkpt>
      <trkpt lat="43.49496" lon="6.75374">
        <ele>46.28</ele>
        <time>2012-05-25T12:17:25Z</time>
      </trkpt>
      <trkpt lat="43.49566" lon="6.75504">
        <ele>48.2</ele>
        <time>2012-05-25T12:17:46Z</time>
      </trkpt>
      <trkpt lat="43.49608" lon="6.75593">
        <ele>47.72</ele>
        <time>2012-05-25T12:17:58Z</time>
      </trkpt>
      <trkpt lat="43.49648" lon="6.75624">
        <ele>46.76</ele>
        <time>2012-05-25T12:18:04Z</time>
      </trkpt>
      <trkpt lat="43.49747" lon="6.75676">
        <ele>46.28</ele>
        <time>2012-05-25T12:18:17Z</time>
      </trkpt>
      <trkpt lat="43.49754" lon="6.75682">
        <ele>46.76</ele>
        <time>2012-05-25T12:18:18Z</time>
      </trkpt>
      <trkpt lat="43.4978" lon="6.75708">
        <ele>46.76</ele>
        <time>2012-05-25T12:18:22Z</time>
      </trkpt>
      <trkpt lat="43.49827" lon="6.75791">
        <ele>46.76</ele>
        <time>2012-05-25T12:18:31Z</time>
      </trkpt>
      <trkpt lat="43.49855" lon="6.75814">
        <ele>46.76</ele>
        <time>2012-05-25T12:18:35Z</time>
      </trkpt>
      <trkpt lat="43.49875" lon="6.75813">
        <ele>46.76</ele>
        <time>2012-05-25T12:18:38Z</time>
      </trkpt>
      <trkpt lat="43.49916" lon="6.75802">
        <ele>45.8</ele>
        <time>2012-05-25T12:18:47Z</time>
      </trkpt>
      <trkpt lat="43.49915" lon="6.75787">
        <ele>44.36</ele>
        <time>2012-05-25T12:18:55Z</time>
      </trkpt>
    </trkseg>
  </trk>
</gpx>